<?xml version="1.0" encoding="UTF-8" standalone="no" ?>
<gpx xmlns="http://www.topografix.com/GPX/1/1" xmlns:xsi="http://www.w3.org/2001/XMLSchema-instance" xsi:schemaLocation="http://www.topografix.com/GPX/1/1 http://www.topografix.com/GPX/1/1/gpx.xsd" version="1.1" creator="VisuGPX - https://www.visugpx.com">
  <metadata>
    <name>Grand Raid des Pyrénées 80km 2014</name>
    <desc><![CDATA[Parcours du Grand Raid des Pyrénées 80km 2014
Disponible sur le site de la course]]></desc>
  </metadata>
  <trk>
    <name><![CDATA[Grand2014 on GPSies.com]]></name>
    <trkseg>
      <trkpt lat="42.82985" lon="0.32715">
        <ele>791</ele>
        <time>2010-01-01T00:00:00Z</time>
      </trkpt>
      <trkpt lat="42.82963" lon="0.32845">
        <ele>790</ele>
        <time>2010-01-01T00:00:38Z</time>
      </trkpt>
      <trkpt lat="42.8292" lon="0.32881">
        <ele>789</ele>
        <time>2010-01-01T00:00:59Z</time>
      </trkpt>
      <trkpt lat="42.8267" lon="0.32806">
        <ele>794</ele>
        <time>2010-01-01T00:02:41Z</time>
      </trkpt>
      <trkpt lat="42.82395" lon="0.32495">
        <ele>798</ele>
        <time>2010-01-01T00:05:04Z</time>
      </trkpt>
      <trkpt lat="42.82331" lon="0.32389">
        <ele>798</ele>
        <time>2010-01-01T00:05:45Z</time>
      </trkpt>
      <trkpt lat="42.82478" lon="0.32074">
        <ele>806</ele>
        <time>2010-01-01T00:07:34Z</time>
      </trkpt>
      <trkpt lat="42.82561" lon="0.31859">
        <ele>817</ele>
        <time>2010-01-01T00:08:45Z</time>
      </trkpt>
      <trkpt lat="42.82575" lon="0.31792">
        <ele>821</ele>
        <time>2010-01-01T00:09:06Z</time>
      </trkpt>
      <trkpt lat="42.82482" lon="0.31718">
        <ele>821</ele>
        <time>2010-01-01T00:09:49Z</time>
      </trkpt>
      <trkpt lat="42.82362" lon="0.31615">
        <ele>824</ele>
        <time>2010-01-01T00:10:46Z</time>
      </trkpt>
      <trkpt lat="42.8234" lon="0.31508">
        <ele>834</ele>
        <time>2010-01-01T00:11:19Z</time>
      </trkpt>
      <trkpt lat="42.82359" lon="0.31414">
        <ele>849</ele>
        <time>2010-01-01T00:11:47Z</time>
      </trkpt>
      <trkpt lat="42.82615" lon="0.31375">
        <ele>881</ele>
        <time>2010-01-01T00:13:31Z</time>
      </trkpt>
      <trkpt lat="42.82456" lon="0.31268">
        <ele>900</ele>
        <time>2010-01-01T00:14:42Z</time>
      </trkpt>
      <trkpt lat="42.82615" lon="0.31246">
        <ele>924</ele>
        <time>2010-01-01T00:15:46Z</time>
      </trkpt>
      <trkpt lat="42.82743" lon="0.31182">
        <ele>932</ele>
        <time>2010-01-01T00:16:40Z</time>
      </trkpt>
      <trkpt lat="42.82755" lon="0.31032">
        <ele>962</ele>
        <time>2010-01-01T00:17:24Z</time>
      </trkpt>
      <trkpt lat="42.82804" lon="0.30836">
        <ele>992</ele>
        <time>2010-01-01T00:18:25Z</time>
      </trkpt>
      <trkpt lat="42.82813" lon="0.30705">
        <ele>1012</ele>
        <time>2010-01-01T00:19:04Z</time>
      </trkpt>
      <trkpt lat="42.82807" lon="0.30594">
        <ele>1031</ele>
        <time>2010-01-01T00:19:37Z</time>
      </trkpt>
      <trkpt lat="42.82807" lon="0.30523">
        <ele>1045</ele>
        <time>2010-01-01T00:19:57Z</time>
      </trkpt>
      <trkpt lat="42.82713" lon="0.30667">
        <ele>1074</ele>
        <time>2010-01-01T00:20:54Z</time>
      </trkpt>
      <trkpt lat="42.82554" lon="0.30773">
        <ele>1085</ele>
        <time>2010-01-01T00:22:05Z</time>
      </trkpt>
      <trkpt lat="42.82644" lon="0.30647">
        <ele>1110</ele>
        <time>2010-01-01T00:22:57Z</time>
      </trkpt>
      <trkpt lat="42.8257" lon="0.30707">
        <ele>1110</ele>
        <time>2010-01-01T00:23:31Z</time>
      </trkpt>
      <trkpt lat="42.82639" lon="0.30555">
        <ele>1141</ele>
        <time>2010-01-01T00:24:24Z</time>
      </trkpt>
      <trkpt lat="42.82575" lon="0.30627">
        <ele>1137</ele>
        <time>2010-01-01T00:24:57Z</time>
      </trkpt>
      <trkpt lat="42.82521" lon="0.30605">
        <ele>1146</ele>
        <time>2010-01-01T00:25:19Z</time>
      </trkpt>
      <trkpt lat="42.82563" lon="0.30589">
        <ele>1152</ele>
        <time>2010-01-01T00:25:37Z</time>
      </trkpt>
      <trkpt lat="42.82406" lon="0.30418">
        <ele>1188</ele>
        <time>2010-01-01T00:26:58Z</time>
      </trkpt>
      <trkpt lat="42.82398" lon="0.3024">
        <ele>1210</ele>
        <time>2010-01-01T00:27:50Z</time>
      </trkpt>
      <trkpt lat="42.82371" lon="0.30023">
        <ele>1239</ele>
        <time>2010-01-01T00:28:55Z</time>
      </trkpt>
      <trkpt lat="42.82437" lon="0.29879">
        <ele>1247</ele>
        <time>2010-01-01T00:29:44Z</time>
      </trkpt>
      <trkpt lat="42.82443" lon="0.29686">
        <ele>1278</ele>
        <time>2010-01-01T00:30:41Z</time>
      </trkpt>
      <trkpt lat="42.82421" lon="0.29502">
        <ele>1295</ele>
        <time>2010-01-01T00:31:36Z</time>
      </trkpt>
      <trkpt lat="42.82404" lon="0.2962">
        <ele>1288</ele>
        <time>2010-01-01T00:32:11Z</time>
      </trkpt>
      <trkpt lat="42.8239" lon="0.29547">
        <ele>1300</ele>
        <time>2010-01-01T00:32:34Z</time>
      </trkpt>
      <trkpt lat="42.82349" lon="0.29463">
        <ele>1321</ele>
        <time>2010-01-01T00:33:03Z</time>
      </trkpt>
      <trkpt lat="42.8228" lon="0.29455">
        <ele>1350</ele>
        <time>2010-01-01T00:33:31Z</time>
      </trkpt>
      <trkpt lat="42.82215" lon="0.29551">
        <ele>1369</ele>
        <time>2010-01-01T00:34:09Z</time>
      </trkpt>
      <trkpt lat="42.82157" lon="0.29566">
        <ele>1389</ele>
        <time>2010-01-01T00:34:33Z</time>
      </trkpt>
      <trkpt lat="42.82056" lon="0.29441">
        <ele>1437</ele>
        <time>2010-01-01T00:35:28Z</time>
      </trkpt>
      <trkpt lat="42.81971" lon="0.29139">
        <ele>1482</ele>
        <time>2010-01-01T00:37:03Z</time>
      </trkpt>
      <trkpt lat="42.81958" lon="0.29022">
        <ele>1500</ele>
        <time>2010-01-01T00:37:37Z</time>
      </trkpt>
      <trkpt lat="42.81923" lon="0.2912">
        <ele>1504</ele>
        <time>2010-01-01T00:38:09Z</time>
      </trkpt>
      <trkpt lat="42.81918" lon="0.28975">
        <ele>1525</ele>
        <time>2010-01-01T00:38:52Z</time>
      </trkpt>
      <trkpt lat="42.81838" lon="0.29133">
        <ele>1531</ele>
        <time>2010-01-01T00:39:48Z</time>
      </trkpt>
      <trkpt lat="42.81784" lon="0.2914">
        <ele>1537</ele>
        <time>2010-01-01T00:40:10Z</time>
      </trkpt>
      <trkpt lat="42.81864" lon="0.28971">
        <ele>1550</ele>
        <time>2010-01-01T00:41:09Z</time>
      </trkpt>
      <trkpt lat="42.81873" lon="0.28857">
        <ele>1566</ele>
        <time>2010-01-01T00:41:43Z</time>
      </trkpt>
      <trkpt lat="42.81826" lon="0.28957">
        <ele>1567</ele>
        <time>2010-01-01T00:42:18Z</time>
      </trkpt>
      <trkpt lat="42.81759" lon="0.28987">
        <ele>1573</ele>
        <time>2010-01-01T00:42:46Z</time>
      </trkpt>
      <trkpt lat="42.81715" lon="0.28949">
        <ele>1589</ele>
        <time>2010-01-01T00:43:06Z</time>
      </trkpt>
      <trkpt lat="42.81799" lon="0.28907">
        <ele>1585</ele>
        <time>2010-01-01T00:43:42Z</time>
      </trkpt>
      <trkpt lat="42.81811" lon="0.28723">
        <ele>1599</ele>
        <time>2010-01-01T00:44:37Z</time>
      </trkpt>
      <trkpt lat="42.81768" lon="0.28783">
        <ele>1611</ele>
        <time>2010-01-01T00:45:01Z</time>
      </trkpt>
      <trkpt lat="42.81786" lon="0.28653">
        <ele>1622</ele>
        <time>2010-01-01T00:45:40Z</time>
      </trkpt>
      <trkpt lat="42.81851" lon="0.28602">
        <ele>1624</ele>
        <time>2010-01-01T00:46:11Z</time>
      </trkpt>
      <trkpt lat="42.81915" lon="0.28393">
        <ele>1653</ele>
        <time>2010-01-01T00:47:17Z</time>
      </trkpt>
      <trkpt lat="42.81918" lon="0.28204">
        <ele>1676</ele>
        <time>2010-01-01T00:48:13Z</time>
      </trkpt>
      <trkpt lat="42.81963" lon="0.2809">
        <ele>1687</ele>
        <time>2010-01-01T00:48:50Z</time>
      </trkpt>
      <trkpt lat="42.81894" lon="0.27822">
        <ele>1751</ele>
        <time>2010-01-01T00:50:14Z</time>
      </trkpt>
      <trkpt lat="42.81889" lon="0.27761">
        <ele>1766</ele>
        <time>2010-01-01T00:50:32Z</time>
      </trkpt>
      <trkpt lat="42.81889" lon="0.27714">
        <ele>1775</ele>
        <time>2010-01-01T00:50:45Z</time>
      </trkpt>
      <trkpt lat="42.81874" lon="0.27616">
        <ele>1793</ele>
        <time>2010-01-01T00:51:15Z</time>
      </trkpt>
      <trkpt lat="42.81886" lon="0.27535">
        <ele>1810</ele>
        <time>2010-01-01T00:51:39Z</time>
      </trkpt>
      <trkpt lat="42.8193" lon="0.27472">
        <ele>1827</ele>
        <time>2010-01-01T00:52:05Z</time>
      </trkpt>
      <trkpt lat="42.82024" lon="0.27446">
        <ele>1834</ele>
        <time>2010-01-01T00:52:43Z</time>
      </trkpt>
      <trkpt lat="42.82044" lon="0.27388">
        <ele>1846</ele>
        <time>2010-01-01T00:53:02Z</time>
      </trkpt>
      <trkpt lat="42.82059" lon="0.27297">
        <ele>1845</ele>
        <time>2010-01-01T00:53:29Z</time>
      </trkpt>
      <trkpt lat="42.82045" lon="0.27107">
        <ele>1845</ele>
        <time>2010-01-01T00:54:25Z</time>
      </trkpt>
      <trkpt lat="42.82042" lon="0.26985">
        <ele>1852</ele>
        <time>2010-01-01T00:55:01Z</time>
      </trkpt>
      <trkpt lat="42.82038" lon="0.26945">
        <ele>1854</ele>
        <time>2010-01-01T00:55:13Z</time>
      </trkpt>
      <trkpt lat="42.82028" lon="0.26888">
        <ele>1855</ele>
        <time>2010-01-01T00:55:30Z</time>
      </trkpt>
      <trkpt lat="42.81954" lon="0.2674">
        <ele>1875</ele>
        <time>2010-01-01T00:56:23Z</time>
      </trkpt>
      <trkpt lat="42.81953" lon="0.26568">
        <ele>1894</ele>
        <time>2010-01-01T00:57:13Z</time>
      </trkpt>
      <trkpt lat="42.82007" lon="0.26351">
        <ele>1908</ele>
        <time>2010-01-01T00:58:21Z</time>
      </trkpt>
      <trkpt lat="42.82083" lon="0.26297">
        <ele>1891</ele>
        <time>2010-01-01T00:58:55Z</time>
      </trkpt>
      <trkpt lat="42.82099" lon="0.26245">
        <ele>1887</ele>
        <time>2010-01-01T00:59:12Z</time>
      </trkpt>
      <trkpt lat="42.82097" lon="0.26193">
        <ele>1887</ele>
        <time>2010-01-01T00:59:27Z</time>
      </trkpt>
      <trkpt lat="42.82094" lon="0.26161">
        <ele>1885</ele>
        <time>2010-01-01T00:59:36Z</time>
      </trkpt>
      <trkpt lat="42.82085" lon="0.26121">
        <ele>1885</ele>
        <time>2010-01-01T00:59:49Z</time>
      </trkpt>
      <trkpt lat="42.82091" lon="0.26084">
        <ele>1875</ele>
        <time>2010-01-01T01:00:00Z</time>
      </trkpt>
      <trkpt lat="42.82071" lon="0.26024">
        <ele>1881</ele>
        <time>2010-01-01T01:00:19Z</time>
      </trkpt>
      <trkpt lat="42.82074" lon="0.25959">
        <ele>1870</ele>
        <time>2010-01-01T01:00:38Z</time>
      </trkpt>
      <trkpt lat="42.8206" lon="0.259">
        <ele>1877</ele>
        <time>2010-01-01T01:00:56Z</time>
      </trkpt>
      <trkpt lat="42.82113" lon="0.25764">
        <ele>1861</ele>
        <time>2010-01-01T01:01:42Z</time>
      </trkpt>
      <trkpt lat="42.82138" lon="0.25695">
        <ele>1854</ele>
        <time>2010-01-01T01:02:04Z</time>
      </trkpt>
      <trkpt lat="42.82138" lon="0.25569">
        <ele>1866</ele>
        <time>2010-01-01T01:02:41Z</time>
      </trkpt>
      <trkpt lat="42.82172" lon="0.25515">
        <ele>1852</ele>
        <time>2010-01-01T01:03:02Z</time>
      </trkpt>
      <trkpt lat="42.82203" lon="0.25464">
        <ele>1845</ele>
        <time>2010-01-01T01:03:21Z</time>
      </trkpt>
      <trkpt lat="42.82216" lon="0.25406">
        <ele>1850</ele>
        <time>2010-01-01T01:03:39Z</time>
      </trkpt>
      <trkpt lat="42.82277" lon="0.25342">
        <ele>1845</ele>
        <time>2010-01-01T01:04:10Z</time>
      </trkpt>
      <trkpt lat="42.82366" lon="0.2527">
        <ele>1827</ele>
        <time>2010-01-01T01:04:52Z</time>
      </trkpt>
      <trkpt lat="42.82499" lon="0.25155">
        <ele>1820</ele>
        <time>2010-01-01T01:05:55Z</time>
      </trkpt>
      <trkpt lat="42.82549" lon="0.24909">
        <ele>1839</ele>
        <time>2010-01-01T01:07:09Z</time>
      </trkpt>
      <trkpt lat="42.8257" lon="0.24842">
        <ele>1856</ele>
        <time>2010-01-01T01:07:31Z</time>
      </trkpt>
      <trkpt lat="42.82712" lon="0.24908">
        <ele>1856</ele>
        <time>2010-01-01T01:08:31Z</time>
      </trkpt>
      <trkpt lat="42.82835" lon="0.24932">
        <ele>1867</ele>
        <time>2010-01-01T01:09:21Z</time>
      </trkpt>
      <trkpt lat="42.8293" lon="0.24823">
        <ele>1895</ele>
        <time>2010-01-01T01:10:10Z</time>
      </trkpt>
      <trkpt lat="42.83021" lon="0.24703">
        <ele>1925</ele>
        <time>2010-01-01T01:11:01Z</time>
      </trkpt>
      <trkpt lat="42.83194" lon="0.2468">
        <ele>1932</ele>
        <time>2010-01-01T01:12:11Z</time>
      </trkpt>
      <trkpt lat="42.8328" lon="0.245">
        <ele>1970</ele>
        <time>2010-01-01T01:13:14Z</time>
      </trkpt>
      <trkpt lat="42.83318" lon="0.24392">
        <ele>1993</ele>
        <time>2010-01-01T01:13:49Z</time>
      </trkpt>
      <trkpt lat="42.83378" lon="0.2416">
        <ele>2044</ele>
        <time>2010-01-01T01:15:01Z</time>
      </trkpt>
      <trkpt lat="42.83343" lon="0.24074">
        <ele>2067</ele>
        <time>2010-01-01T01:15:30Z</time>
      </trkpt>
      <trkpt lat="42.83271" lon="0.24009">
        <ele>2104</ele>
        <time>2010-01-01T01:16:04Z</time>
      </trkpt>
      <trkpt lat="42.83381" lon="0.23899">
        <ele>2128</ele>
        <time>2010-01-01T01:16:59Z</time>
      </trkpt>
      <trkpt lat="42.83478" lon="0.23734">
        <ele>2183</ele>
        <time>2010-01-01T01:18:01Z</time>
      </trkpt>
      <trkpt lat="42.83309" lon="0.23635">
        <ele>2216</ele>
        <time>2010-01-01T01:19:15Z</time>
      </trkpt>
      <trkpt lat="42.83067" lon="0.23195">
        <ele>2169</ele>
        <time>2010-01-01T01:21:56Z</time>
      </trkpt>
      <trkpt lat="42.82919" lon="0.22854">
        <ele>2120</ele>
        <time>2010-01-01T01:23:53Z</time>
      </trkpt>
      <trkpt lat="42.8285" lon="0.22534">
        <ele>2078</ele>
        <time>2010-01-01T01:25:30Z</time>
      </trkpt>
      <trkpt lat="42.82835" lon="0.2208">
        <ele>2038</ele>
        <time>2010-01-01T01:27:44Z</time>
      </trkpt>
      <trkpt lat="42.82863" lon="0.21893">
        <ele>2044</ele>
        <time>2010-01-01T01:28:40Z</time>
      </trkpt>
      <trkpt lat="42.82895" lon="0.21727">
        <ele>2060</ele>
        <time>2010-01-01T01:29:30Z</time>
      </trkpt>
      <trkpt lat="42.82919" lon="0.21603">
        <ele>2078</ele>
        <time>2010-01-01T01:30:08Z</time>
      </trkpt>
      <trkpt lat="42.82932" lon="0.21429">
        <ele>2085</ele>
        <time>2010-01-01T01:30:59Z</time>
      </trkpt>
      <trkpt lat="42.82978" lon="0.21377">
        <ele>2093</ele>
        <time>2010-01-01T01:31:23Z</time>
      </trkpt>
      <trkpt lat="42.83024" lon="0.21393">
        <ele>2105</ele>
        <time>2010-01-01T01:31:42Z</time>
      </trkpt>
      <trkpt lat="42.83031" lon="0.21281">
        <ele>2102</ele>
        <time>2010-01-01T01:32:15Z</time>
      </trkpt>
      <trkpt lat="42.83159" lon="0.21086">
        <ele>2134</ele>
        <time>2010-01-01T01:33:32Z</time>
      </trkpt>
      <trkpt lat="42.83234" lon="0.20997">
        <ele>2130</ele>
        <time>2010-01-01T01:34:11Z</time>
      </trkpt>
      <trkpt lat="42.83363" lon="0.20962">
        <ele>2125</ele>
        <time>2010-01-01T01:35:04Z</time>
      </trkpt>
      <trkpt lat="42.83564" lon="0.20863">
        <ele>2117</ele>
        <time>2010-01-01T01:36:30Z</time>
      </trkpt>
      <trkpt lat="42.83725" lon="0.20845">
        <ele>2126</ele>
        <time>2010-01-01T01:37:34Z</time>
      </trkpt>
      <trkpt lat="42.8381" lon="0.20824">
        <ele>2133</ele>
        <time>2010-01-01T01:38:09Z</time>
      </trkpt>
      <trkpt lat="42.83873" lon="0.20834">
        <ele>2146</ele>
        <time>2010-01-01T01:38:34Z</time>
      </trkpt>
      <trkpt lat="42.83993" lon="0.2078">
        <ele>2136</ele>
        <time>2010-01-01T01:39:25Z</time>
      </trkpt>
      <trkpt lat="42.84075" lon="0.20832">
        <ele>2136</ele>
        <time>2010-01-01T01:40:01Z</time>
      </trkpt>
      <trkpt lat="42.84198" lon="0.20907">
        <ele>2139</ele>
        <time>2010-01-01T01:40:55Z</time>
      </trkpt>
      <trkpt lat="42.8422" lon="0.20906">
        <ele>2139</ele>
        <time>2010-01-01T01:41:04Z</time>
      </trkpt>
      <trkpt lat="42.84389" lon="0.21028">
        <ele>2170</ele>
        <time>2010-01-01T01:42:20Z</time>
      </trkpt>
      <trkpt lat="42.8446" lon="0.21007">
        <ele>2171</ele>
        <time>2010-01-01T01:42:50Z</time>
      </trkpt>
      <trkpt lat="42.84635" lon="0.2119">
        <ele>2191</ele>
        <time>2010-01-01T01:44:18Z</time>
      </trkpt>
      <trkpt lat="42.84663" lon="0.2125">
        <ele>2201</ele>
        <time>2010-01-01T01:44:39Z</time>
      </trkpt>
      <trkpt lat="42.84758" lon="0.21277">
        <ele>2206</ele>
        <time>2010-01-01T01:45:17Z</time>
      </trkpt>
      <trkpt lat="42.8482" lon="0.21345">
        <ele>2222</ele>
        <time>2010-01-01T01:45:49Z</time>
      </trkpt>
      <trkpt lat="42.84893" lon="0.21272">
        <ele>2224</ele>
        <time>2010-01-01T01:46:25Z</time>
      </trkpt>
      <trkpt lat="42.84984" lon="0.21257">
        <ele>2230</ele>
        <time>2010-01-01T01:47:02Z</time>
      </trkpt>
      <trkpt lat="42.85069" lon="0.21199">
        <ele>2231</ele>
        <time>2010-01-01T01:47:40Z</time>
      </trkpt>
      <trkpt lat="42.85122" lon="0.21197">
        <ele>2232</ele>
        <time>2010-01-01T01:48:02Z</time>
      </trkpt>
      <trkpt lat="42.85242" lon="0.21125">
        <ele>2240</ele>
        <time>2010-01-01T01:48:54Z</time>
      </trkpt>
      <trkpt lat="42.853" lon="0.21086">
        <ele>2253</ele>
        <time>2010-01-01T01:49:20Z</time>
      </trkpt>
      <trkpt lat="42.85356" lon="0.20974">
        <ele>2251</ele>
        <time>2010-01-01T01:50:00Z</time>
      </trkpt>
      <trkpt lat="42.85482" lon="0.20994">
        <ele>2261</ele>
        <time>2010-01-01T01:50:50Z</time>
      </trkpt>
      <trkpt lat="42.85562" lon="0.20942">
        <ele>2266</ele>
        <time>2010-01-01T01:51:26Z</time>
      </trkpt>
      <trkpt lat="42.85596" lon="0.20849">
        <ele>2273</ele>
        <time>2010-01-01T01:51:56Z</time>
      </trkpt>
      <trkpt lat="42.85597" lon="0.20757">
        <ele>2288</ele>
        <time>2010-01-01T01:52:23Z</time>
      </trkpt>
      <trkpt lat="42.85672" lon="0.20719">
        <ele>2300</ele>
        <time>2010-01-01T01:52:55Z</time>
      </trkpt>
      <trkpt lat="42.85804" lon="0.20741">
        <ele>2312</ele>
        <time>2010-01-01T01:53:49Z</time>
      </trkpt>
      <trkpt lat="42.85913" lon="0.20751">
        <ele>2324</ele>
        <time>2010-01-01T01:54:32Z</time>
      </trkpt>
      <trkpt lat="42.85999" lon="0.20677">
        <ele>2334</ele>
        <time>2010-01-01T01:55:13Z</time>
      </trkpt>
      <trkpt lat="42.86103" lon="0.20708">
        <ele>2364</ele>
        <time>2010-01-01T01:55:56Z</time>
      </trkpt>
      <trkpt lat="42.86134" lon="0.20665">
        <ele>2381</ele>
        <time>2010-01-01T01:56:13Z</time>
      </trkpt>
      <trkpt lat="42.86285" lon="0.20721">
        <ele>2406</ele>
        <time>2010-01-01T01:57:16Z</time>
      </trkpt>
      <trkpt lat="42.86375" lon="0.20699">
        <ele>2416</ele>
        <time>2010-01-01T01:57:53Z</time>
      </trkpt>
      <trkpt lat="42.86485" lon="0.20698">
        <ele>2428</ele>
        <time>2010-01-01T01:58:37Z</time>
      </trkpt>
      <trkpt lat="42.86517" lon="0.2066">
        <ele>2431</ele>
        <time>2010-01-01T01:58:54Z</time>
      </trkpt>
      <trkpt lat="42.86569" lon="0.20659">
        <ele>2440</ele>
        <time>2010-01-01T01:59:14Z</time>
      </trkpt>
      <trkpt lat="42.86589" lon="0.20672">
        <ele>2446</ele>
        <time>2010-01-01T01:59:23Z</time>
      </trkpt>
      <trkpt lat="42.86628" lon="0.20701">
        <ele>2475</ele>
        <time>2010-01-01T01:59:41Z</time>
      </trkpt>
      <trkpt lat="42.86688" lon="0.20658">
        <ele>2504</ele>
        <time>2010-01-01T02:00:08Z</time>
      </trkpt>
      <trkpt lat="42.86688" lon="0.2064">
        <ele>2505</ele>
        <time>2010-01-01T02:00:13Z</time>
      </trkpt>
      <trkpt lat="42.86724" lon="0.20625">
        <ele>2510</ele>
        <time>2010-01-01T02:00:29Z</time>
      </trkpt>
      <trkpt lat="42.86732" lon="0.20697">
        <ele>2513</ele>
        <time>2010-01-01T02:00:50Z</time>
      </trkpt>
      <trkpt lat="42.86871" lon="0.20715">
        <ele>2452</ele>
        <time>2010-01-01T02:01:46Z</time>
      </trkpt>
      <trkpt lat="42.87007" lon="0.20645">
        <ele>2415</ele>
        <time>2010-01-01T02:02:45Z</time>
      </trkpt>
      <trkpt lat="42.87099" lon="0.20531">
        <ele>2415</ele>
        <time>2010-01-01T02:03:34Z</time>
      </trkpt>
      <trkpt lat="42.87139" lon="0.20509">
        <ele>2418</ele>
        <time>2010-01-01T02:03:52Z</time>
      </trkpt>
      <trkpt lat="42.87189" lon="0.20522">
        <ele>2415</ele>
        <time>2010-01-01T02:04:12Z</time>
      </trkpt>
      <trkpt lat="42.87231" lon="0.20484">
        <ele>2413</ele>
        <time>2010-01-01T02:04:32Z</time>
      </trkpt>
      <trkpt lat="42.87273" lon="0.20467">
        <ele>2407</ele>
        <time>2010-01-01T02:04:50Z</time>
      </trkpt>
      <trkpt lat="42.87363" lon="0.20546">
        <ele>2380</ele>
        <time>2010-01-01T02:05:32Z</time>
      </trkpt>
      <trkpt lat="42.87412" lon="0.20544">
        <ele>2368</ele>
        <time>2010-01-01T02:05:52Z</time>
      </trkpt>
      <trkpt lat="42.87462" lon="0.20573">
        <ele>2360</ele>
        <time>2010-01-01T02:06:14Z</time>
      </trkpt>
      <trkpt lat="42.87551" lon="0.20524">
        <ele>2352</ele>
        <time>2010-01-01T02:06:52Z</time>
      </trkpt>
      <trkpt lat="42.87633" lon="0.20591">
        <ele>2344</ele>
        <time>2010-01-01T02:07:30Z</time>
      </trkpt>
      <trkpt lat="42.87722" lon="0.20533">
        <ele>2316</ele>
        <time>2010-01-01T02:08:10Z</time>
      </trkpt>
      <trkpt lat="42.87762" lon="0.20472">
        <ele>2304</ele>
        <time>2010-01-01T02:08:34Z</time>
      </trkpt>
      <trkpt lat="42.87843" lon="0.20443">
        <ele>2283</ele>
        <time>2010-01-01T02:09:08Z</time>
      </trkpt>
      <trkpt lat="42.87865" lon="0.2039">
        <ele>2271</ele>
        <time>2010-01-01T02:09:25Z</time>
      </trkpt>
      <trkpt lat="42.87908" lon="0.20398">
        <ele>2263</ele>
        <time>2010-01-01T02:09:43Z</time>
      </trkpt>
      <trkpt lat="42.87961" lon="0.20457">
        <ele>2247</ele>
        <time>2010-01-01T02:10:10Z</time>
      </trkpt>
      <trkpt lat="42.87978" lon="0.20539">
        <ele>2246</ele>
        <time>2010-01-01T02:10:35Z</time>
      </trkpt>
      <trkpt lat="42.88068" lon="0.20575">
        <ele>2241</ele>
        <time>2010-01-01T02:11:13Z</time>
      </trkpt>
      <trkpt lat="42.88112" lon="0.20595">
        <ele>2228</ele>
        <time>2010-01-01T02:11:31Z</time>
      </trkpt>
      <trkpt lat="42.88154" lon="0.20559">
        <ele>2219</ele>
        <time>2010-01-01T02:11:51Z</time>
      </trkpt>
      <trkpt lat="42.88201" lon="0.20543">
        <ele>2213</ele>
        <time>2010-01-01T02:12:10Z</time>
      </trkpt>
      <trkpt lat="42.88285" lon="0.20509">
        <ele>2210</ele>
        <time>2010-01-01T02:12:45Z</time>
      </trkpt>
      <trkpt lat="42.88379" lon="0.20502">
        <ele>2183</ele>
        <time>2010-01-01T02:13:23Z</time>
      </trkpt>
      <trkpt lat="42.88416" lon="0.2043">
        <ele>2186</ele>
        <time>2010-01-01T02:13:49Z</time>
      </trkpt>
      <trkpt lat="42.88459" lon="0.20444">
        <ele>2170</ele>
        <time>2010-01-01T02:14:07Z</time>
      </trkpt>
      <trkpt lat="42.88441" lon="0.20473">
        <ele>2165</ele>
        <time>2010-01-01T02:14:18Z</time>
      </trkpt>
      <trkpt lat="42.88479" lon="0.20487">
        <ele>2146</ele>
        <time>2010-01-01T02:14:34Z</time>
      </trkpt>
      <trkpt lat="42.88466" lon="0.20519">
        <ele>2141</ele>
        <time>2010-01-01T02:14:44Z</time>
      </trkpt>
      <trkpt lat="42.88546" lon="0.20622">
        <ele>2125</ele>
        <time>2010-01-01T02:15:28Z</time>
      </trkpt>
      <trkpt lat="42.8858" lon="0.20642">
        <ele>2131</ele>
        <time>2010-01-01T02:15:43Z</time>
      </trkpt>
      <trkpt lat="42.8867" lon="0.2055">
        <ele>2130</ele>
        <time>2010-01-01T02:16:28Z</time>
      </trkpt>
      <trkpt lat="42.8875" lon="0.20516">
        <ele>2134</ele>
        <time>2010-01-01T02:17:01Z</time>
      </trkpt>
      <trkpt lat="42.88884" lon="0.20517">
        <ele>2144</ele>
        <time>2010-01-01T02:17:55Z</time>
      </trkpt>
      <trkpt lat="42.88889" lon="0.20487">
        <ele>2137</ele>
        <time>2010-01-01T02:18:04Z</time>
      </trkpt>
      <trkpt lat="42.88978" lon="0.20331">
        <ele>2152</ele>
        <time>2010-01-01T02:19:02Z</time>
      </trkpt>
      <trkpt lat="42.89098" lon="0.20143">
        <ele>2157</ele>
        <time>2010-01-01T02:20:15Z</time>
      </trkpt>
      <trkpt lat="42.89139" lon="0.20071">
        <ele>2142</ele>
        <time>2010-01-01T02:20:42Z</time>
      </trkpt>
      <trkpt lat="42.89196" lon="0.20094">
        <ele>2131</ele>
        <time>2010-01-01T02:21:06Z</time>
      </trkpt>
      <trkpt lat="42.89217" lon="0.20062">
        <ele>2129</ele>
        <time>2010-01-01T02:21:18Z</time>
      </trkpt>
      <trkpt lat="42.89169" lon="0.20009">
        <ele>2131</ele>
        <time>2010-01-01T02:21:43Z</time>
      </trkpt>
      <trkpt lat="42.89183" lon="0.19917">
        <ele>2116</ele>
        <time>2010-01-01T02:22:11Z</time>
      </trkpt>
      <trkpt lat="42.89222" lon="0.19839">
        <ele>2104</ele>
        <time>2010-01-01T02:22:38Z</time>
      </trkpt>
      <trkpt lat="42.8925" lon="0.19807">
        <ele>2094</ele>
        <time>2010-01-01T02:22:53Z</time>
      </trkpt>
      <trkpt lat="42.89263" lon="0.19783">
        <ele>2089</ele>
        <time>2010-01-01T02:23:02Z</time>
      </trkpt>
      <trkpt lat="42.89283" lon="0.19767">
        <ele>2085</ele>
        <time>2010-01-01T02:23:11Z</time>
      </trkpt>
      <trkpt lat="42.89292" lon="0.19739">
        <ele>2085</ele>
        <time>2010-01-01T02:23:20Z</time>
      </trkpt>
      <trkpt lat="42.89339" lon="0.19743">
        <ele>2067</ele>
        <time>2010-01-01T02:23:39Z</time>
      </trkpt>
      <trkpt lat="42.8935" lon="0.19718">
        <ele>2066</ele>
        <time>2010-01-01T02:23:47Z</time>
      </trkpt>
      <trkpt lat="42.89377" lon="0.19726">
        <ele>2060</ele>
        <time>2010-01-01T02:23:59Z</time>
      </trkpt>
      <trkpt lat="42.89403" lon="0.19704">
        <ele>2064</ele>
        <time>2010-01-01T02:24:11Z</time>
      </trkpt>
      <trkpt lat="42.89442" lon="0.19739">
        <ele>2062</ele>
        <time>2010-01-01T02:24:30Z</time>
      </trkpt>
      <trkpt lat="42.89507" lon="0.19822">
        <ele>2052</ele>
        <time>2010-01-01T02:25:05Z</time>
      </trkpt>
      <trkpt lat="42.89591" lon="0.19865">
        <ele>2056</ele>
        <time>2010-01-01T02:25:41Z</time>
      </trkpt>
      <trkpt lat="42.89616" lon="0.19879">
        <ele>2059</ele>
        <time>2010-01-01T02:25:52Z</time>
      </trkpt>
      <trkpt lat="42.89632" lon="0.19925">
        <ele>2053</ele>
        <time>2010-01-01T02:26:07Z</time>
      </trkpt>
      <trkpt lat="42.89651" lon="0.19951">
        <ele>2050</ele>
        <time>2010-01-01T02:26:18Z</time>
      </trkpt>
      <trkpt lat="42.8967" lon="0.2">
        <ele>2044</ele>
        <time>2010-01-01T02:26:34Z</time>
      </trkpt>
      <trkpt lat="42.89697" lon="0.20023">
        <ele>2036</ele>
        <time>2010-01-01T02:26:47Z</time>
      </trkpt>
      <trkpt lat="42.89749" lon="0.20009">
        <ele>2033</ele>
        <time>2010-01-01T02:27:08Z</time>
      </trkpt>
      <trkpt lat="42.89781" lon="0.20038">
        <ele>2016</ele>
        <time>2010-01-01T02:27:23Z</time>
      </trkpt>
      <trkpt lat="42.89882" lon="0.20068">
        <ele>1997</ele>
        <time>2010-01-01T02:28:05Z</time>
      </trkpt>
      <trkpt lat="42.8986" lon="0.20167">
        <ele>1971</ele>
        <time>2010-01-01T02:28:35Z</time>
      </trkpt>
      <trkpt lat="42.89922" lon="0.20265">
        <ele>1967</ele>
        <time>2010-01-01T02:29:13Z</time>
      </trkpt>
      <trkpt lat="42.89986" lon="0.20428">
        <ele>1932</ele>
        <time>2010-01-01T02:30:07Z</time>
      </trkpt>
      <trkpt lat="42.90043" lon="0.20453">
        <ele>1927</ele>
        <time>2010-01-01T02:30:31Z</time>
      </trkpt>
      <trkpt lat="42.90089" lon="0.20501">
        <ele>1913</ele>
        <time>2010-01-01T02:30:54Z</time>
      </trkpt>
      <trkpt lat="42.90108" lon="0.20585">
        <ele>1889</ele>
        <time>2010-01-01T02:31:20Z</time>
      </trkpt>
      <trkpt lat="42.90149" lon="0.20694">
        <ele>1861</ele>
        <time>2010-01-01T02:31:56Z</time>
      </trkpt>
      <trkpt lat="42.90181" lon="0.20751">
        <ele>1847</ele>
        <time>2010-01-01T02:32:17Z</time>
      </trkpt>
      <trkpt lat="42.90155" lon="0.20791">
        <ele>1832</ele>
        <time>2010-01-01T02:32:33Z</time>
      </trkpt>
      <trkpt lat="42.90202" lon="0.20796">
        <ele>1830</ele>
        <time>2010-01-01T02:32:52Z</time>
      </trkpt>
      <trkpt lat="42.90245" lon="0.20877">
        <ele>1793</ele>
        <time>2010-01-01T02:33:21Z</time>
      </trkpt>
      <trkpt lat="42.90271" lon="0.20836">
        <ele>1799</ele>
        <time>2010-01-01T02:33:37Z</time>
      </trkpt>
      <trkpt lat="42.90446" lon="0.20958">
        <ele>1733</ele>
        <time>2010-01-01T02:34:56Z</time>
      </trkpt>
      <trkpt lat="42.90455" lon="0.20939">
        <ele>1736</ele>
        <time>2010-01-01T02:35:02Z</time>
      </trkpt>
      <trkpt lat="42.9048" lon="0.2096">
        <ele>1720</ele>
        <time>2010-01-01T02:35:14Z</time>
      </trkpt>
      <trkpt lat="42.90502" lon="0.20938">
        <ele>1711</ele>
        <time>2010-01-01T02:35:25Z</time>
      </trkpt>
      <trkpt lat="42.90514" lon="0.20891">
        <ele>1719</ele>
        <time>2010-01-01T02:35:39Z</time>
      </trkpt>
      <trkpt lat="42.90535" lon="0.20887">
        <ele>1709</ele>
        <time>2010-01-01T02:35:48Z</time>
      </trkpt>
      <trkpt lat="42.90547" lon="0.2097">
        <ele>1672</ele>
        <time>2010-01-01T02:36:12Z</time>
      </trkpt>
      <trkpt lat="42.90653" lon="0.21066">
        <ele>1625</ele>
        <time>2010-01-01T02:37:03Z</time>
      </trkpt>
      <trkpt lat="42.90714" lon="0.21125">
        <ele>1611</ele>
        <time>2010-01-01T02:37:33Z</time>
      </trkpt>
      <trkpt lat="42.90722" lon="0.21177">
        <ele>1607</ele>
        <time>2010-01-01T02:37:49Z</time>
      </trkpt>
      <trkpt lat="42.90734" lon="0.21225">
        <ele>1606</ele>
        <time>2010-01-01T02:38:04Z</time>
      </trkpt>
      <trkpt lat="42.9076" lon="0.21289">
        <ele>1606</ele>
        <time>2010-01-01T02:38:25Z</time>
      </trkpt>
      <trkpt lat="42.90859" lon="0.21365">
        <ele>1591</ele>
        <time>2010-01-01T02:39:10Z</time>
      </trkpt>
      <trkpt lat="42.90932" lon="0.21444">
        <ele>1587</ele>
        <time>2010-01-01T02:39:48Z</time>
      </trkpt>
      <trkpt lat="42.91048" lon="0.21535">
        <ele>1573</ele>
        <time>2010-01-01T02:40:41Z</time>
      </trkpt>
      <trkpt lat="42.91082" lon="0.21549">
        <ele>1584</ele>
        <time>2010-01-01T02:40:55Z</time>
      </trkpt>
      <trkpt lat="42.911" lon="0.21524">
        <ele>1581</ele>
        <time>2010-01-01T02:41:06Z</time>
      </trkpt>
      <trkpt lat="42.91144" lon="0.21482">
        <ele>1568</ele>
        <time>2010-01-01T02:41:27Z</time>
      </trkpt>
      <trkpt lat="42.9118" lon="0.21515">
        <ele>1569</ele>
        <time>2010-01-01T02:41:44Z</time>
      </trkpt>
      <trkpt lat="42.91186" lon="0.21548">
        <ele>1577</ele>
        <time>2010-01-01T02:41:54Z</time>
      </trkpt>
      <trkpt lat="42.9129" lon="0.21615">
        <ele>1579</ele>
        <time>2010-01-01T02:42:41Z</time>
      </trkpt>
      <trkpt lat="42.91436" lon="0.21701">
        <ele>1569</ele>
        <time>2010-01-01T02:43:44Z</time>
      </trkpt>
      <trkpt lat="42.91554" lon="0.21654">
        <ele>1546</ele>
        <time>2010-01-01T02:44:33Z</time>
      </trkpt>
      <trkpt lat="42.91589" lon="0.21613">
        <ele>1539</ele>
        <time>2010-01-01T02:44:52Z</time>
      </trkpt>
      <trkpt lat="42.91645" lon="0.21501">
        <ele>1524</ele>
        <time>2010-01-01T02:45:32Z</time>
      </trkpt>
      <trkpt lat="42.91714" lon="0.21471">
        <ele>1506</ele>
        <time>2010-01-01T02:46:01Z</time>
      </trkpt>
      <trkpt lat="42.91797" lon="0.2144">
        <ele>1496</ele>
        <time>2010-01-01T02:46:35Z</time>
      </trkpt>
      <trkpt lat="42.91822" lon="0.21347">
        <ele>1474</ele>
        <time>2010-01-01T02:47:04Z</time>
      </trkpt>
      <trkpt lat="42.91862" lon="0.21196">
        <ele>1442</ele>
        <time>2010-01-01T02:47:51Z</time>
      </trkpt>
      <trkpt lat="42.91895" lon="0.21189">
        <ele>1433</ele>
        <time>2010-01-01T02:48:05Z</time>
      </trkpt>
      <trkpt lat="42.91933" lon="0.2116">
        <ele>1414</ele>
        <time>2010-01-01T02:48:22Z</time>
      </trkpt>
      <trkpt lat="42.91969" lon="0.21174">
        <ele>1414</ele>
        <time>2010-01-01T02:48:37Z</time>
      </trkpt>
      <trkpt lat="42.92048" lon="0.21107">
        <ele>1399</ele>
        <time>2010-01-01T02:49:14Z</time>
      </trkpt>
      <trkpt lat="42.92109" lon="0.21077">
        <ele>1399</ele>
        <time>2010-01-01T02:49:40Z</time>
      </trkpt>
      <trkpt lat="42.92152" lon="0.21014">
        <ele>1382</ele>
        <time>2010-01-01T02:50:05Z</time>
      </trkpt>
      <trkpt lat="42.92201" lon="0.21003">
        <ele>1388</ele>
        <time>2010-01-01T02:50:25Z</time>
      </trkpt>
      <trkpt lat="42.92207" lon="0.20966">
        <ele>1375</ele>
        <time>2010-01-01T02:50:36Z</time>
      </trkpt>
      <trkpt lat="42.9229" lon="0.20927">
        <ele>1373</ele>
        <time>2010-01-01T02:51:11Z</time>
      </trkpt>
      <trkpt lat="42.92338" lon="0.20885">
        <ele>1366</ele>
        <time>2010-01-01T02:51:34Z</time>
      </trkpt>
      <trkpt lat="42.92385" lon="0.20767">
        <ele>1335</ele>
        <time>2010-01-01T02:52:14Z</time>
      </trkpt>
      <trkpt lat="42.92437" lon="0.20649">
        <ele>1312</ele>
        <time>2010-01-01T02:52:54Z</time>
      </trkpt>
      <trkpt lat="42.92456" lon="0.20587">
        <ele>1288</ele>
        <time>2010-01-01T02:53:14Z</time>
      </trkpt>
      <trkpt lat="42.92494" lon="0.20598">
        <ele>1282</ele>
        <time>2010-01-01T02:53:29Z</time>
      </trkpt>
      <trkpt lat="42.92529" lon="0.20545">
        <ele>1261</ele>
        <time>2010-01-01T02:53:50Z</time>
      </trkpt>
      <trkpt lat="42.92571" lon="0.20507">
        <ele>1240</ele>
        <time>2010-01-01T02:54:10Z</time>
      </trkpt>
      <trkpt lat="42.92625" lon="0.2052">
        <ele>1234</ele>
        <time>2010-01-01T02:54:32Z</time>
      </trkpt>
      <trkpt lat="42.92691" lon="0.20554">
        <ele>1239</ele>
        <time>2010-01-01T02:55:01Z</time>
      </trkpt>
      <trkpt lat="42.92828" lon="0.20433">
        <ele>1207</ele>
        <time>2010-01-01T02:56:06Z</time>
      </trkpt>
      <trkpt lat="42.92856" lon="0.20353">
        <ele>1203</ele>
        <time>2010-01-01T02:56:32Z</time>
      </trkpt>
      <trkpt lat="42.92886" lon="0.20321">
        <ele>1208</ele>
        <time>2010-01-01T02:56:47Z</time>
      </trkpt>
      <trkpt lat="42.92955" lon="0.20373">
        <ele>1207</ele>
        <time>2010-01-01T02:57:19Z</time>
      </trkpt>
      <trkpt lat="42.92982" lon="0.20355">
        <ele>1213</ele>
        <time>2010-01-01T02:57:31Z</time>
      </trkpt>
      <trkpt lat="42.92978" lon="0.20303">
        <ele>1219</ele>
        <time>2010-01-01T02:57:46Z</time>
      </trkpt>
      <trkpt lat="42.92774" lon="0.20162">
        <ele>1224</ele>
        <time>2010-01-01T02:59:18Z</time>
      </trkpt>
      <trkpt lat="42.92713" lon="0.20237">
        <ele>1223</ele>
        <time>2010-01-01T02:59:50Z</time>
      </trkpt>
      <trkpt lat="42.92696" lon="0.20224">
        <ele>1225</ele>
        <time>2010-01-01T02:59:58Z</time>
      </trkpt>
      <trkpt lat="42.92682" lon="0.20197">
        <ele>1227</ele>
        <time>2010-01-01T03:00:08Z</time>
      </trkpt>
      <trkpt lat="42.92642" lon="0.19978">
        <ele>1244</ele>
        <time>2010-01-01T03:01:14Z</time>
      </trkpt>
      <trkpt lat="42.92564" lon="0.19745">
        <ele>1297</ele>
        <time>2010-01-01T03:02:29Z</time>
      </trkpt>
      <trkpt lat="42.9251" lon="0.19231">
        <ele>1423</ele>
        <time>2010-01-01T03:05:01Z</time>
      </trkpt>
      <trkpt lat="42.92532" lon="0.19227">
        <ele>1422</ele>
        <time>2010-01-01T03:05:10Z</time>
      </trkpt>
      <trkpt lat="42.92587" lon="0.19027">
        <ele>1441</ele>
        <time>2010-01-01T03:06:13Z</time>
      </trkpt>
      <trkpt lat="42.92603" lon="0.18937">
        <ele>1455</ele>
        <time>2010-01-01T03:06:40Z</time>
      </trkpt>
      <trkpt lat="42.92579" lon="0.18859">
        <ele>1455</ele>
        <time>2010-01-01T03:07:05Z</time>
      </trkpt>
      <trkpt lat="42.9259" lon="0.1877">
        <ele>1473</ele>
        <time>2010-01-01T03:07:32Z</time>
      </trkpt>
      <trkpt lat="42.92606" lon="0.18665">
        <ele>1487</ele>
        <time>2010-01-01T03:08:03Z</time>
      </trkpt>
      <trkpt lat="42.92642" lon="0.18563">
        <ele>1500</ele>
        <time>2010-01-01T03:08:36Z</time>
      </trkpt>
      <trkpt lat="42.92703" lon="0.18472">
        <ele>1521</ele>
        <time>2010-01-01T03:09:12Z</time>
      </trkpt>
      <trkpt lat="42.92778" lon="0.18405">
        <ele>1540</ele>
        <time>2010-01-01T03:09:48Z</time>
      </trkpt>
      <trkpt lat="42.92818" lon="0.18263">
        <ele>1553</ele>
        <time>2010-01-01T03:10:33Z</time>
      </trkpt>
      <trkpt lat="42.92851" lon="0.18191">
        <ele>1558</ele>
        <time>2010-01-01T03:10:57Z</time>
      </trkpt>
      <trkpt lat="42.92831" lon="0.18134">
        <ele>1561</ele>
        <time>2010-01-01T03:11:16Z</time>
      </trkpt>
      <trkpt lat="42.92836" lon="0.18036">
        <ele>1580</ele>
        <time>2010-01-01T03:11:45Z</time>
      </trkpt>
      <trkpt lat="42.92859" lon="0.17953">
        <ele>1589</ele>
        <time>2010-01-01T03:12:11Z</time>
      </trkpt>
      <trkpt lat="42.92863" lon="0.17904">
        <ele>1596</ele>
        <time>2010-01-01T03:12:25Z</time>
      </trkpt>
      <trkpt lat="42.92901" lon="0.17795">
        <ele>1612</ele>
        <time>2010-01-01T03:13:00Z</time>
      </trkpt>
      <trkpt lat="42.92935" lon="0.17711">
        <ele>1621</ele>
        <time>2010-01-01T03:13:29Z</time>
      </trkpt>
      <trkpt lat="42.92954" lon="0.17619">
        <ele>1642</ele>
        <time>2010-01-01T03:13:57Z</time>
      </trkpt>
      <trkpt lat="42.9302" lon="0.17558">
        <ele>1625</ele>
        <time>2010-01-01T03:14:29Z</time>
      </trkpt>
      <trkpt lat="42.93015" lon="0.1743">
        <ele>1649</ele>
        <time>2010-01-01T03:15:06Z</time>
      </trkpt>
      <trkpt lat="42.92979" lon="0.1734">
        <ele>1667</ele>
        <time>2010-01-01T03:15:36Z</time>
      </trkpt>
      <trkpt lat="42.92953" lon="0.17234">
        <ele>1675</ele>
        <time>2010-01-01T03:16:09Z</time>
      </trkpt>
      <trkpt lat="42.92911" lon="0.17196">
        <ele>1697</ele>
        <time>2010-01-01T03:16:29Z</time>
      </trkpt>
      <trkpt lat="42.92909" lon="0.17083">
        <ele>1704</ele>
        <time>2010-01-01T03:17:02Z</time>
      </trkpt>
      <trkpt lat="42.92879" lon="0.16818">
        <ele>1750</ele>
        <time>2010-01-01T03:18:21Z</time>
      </trkpt>
      <trkpt lat="42.92847" lon="0.16663">
        <ele>1780</ele>
        <time>2010-01-01T03:19:08Z</time>
      </trkpt>
      <trkpt lat="42.92824" lon="0.16546">
        <ele>1815</ele>
        <time>2010-01-01T03:19:43Z</time>
      </trkpt>
      <trkpt lat="42.92837" lon="0.16502">
        <ele>1818</ele>
        <time>2010-01-01T03:19:57Z</time>
      </trkpt>
      <trkpt lat="42.92845" lon="0.16473">
        <ele>1819</ele>
        <time>2010-01-01T03:20:06Z</time>
      </trkpt>
      <trkpt lat="42.92833" lon="0.16435">
        <ele>1835</ele>
        <time>2010-01-01T03:20:18Z</time>
      </trkpt>
      <trkpt lat="42.92852" lon="0.16385">
        <ele>1838</ele>
        <time>2010-01-01T03:20:35Z</time>
      </trkpt>
      <trkpt lat="42.92876" lon="0.16341">
        <ele>1845</ele>
        <time>2010-01-01T03:20:51Z</time>
      </trkpt>
      <trkpt lat="42.92894" lon="0.16325">
        <ele>1846</ele>
        <time>2010-01-01T03:21:00Z</time>
      </trkpt>
      <trkpt lat="42.92936" lon="0.16306">
        <ele>1845</ele>
        <time>2010-01-01T03:21:17Z</time>
      </trkpt>
      <trkpt lat="42.9301" lon="0.16293">
        <ele>1844</ele>
        <time>2010-01-01T03:21:47Z</time>
      </trkpt>
      <trkpt lat="42.93081" lon="0.16272">
        <ele>1843</ele>
        <time>2010-01-01T03:22:16Z</time>
      </trkpt>
      <trkpt lat="42.93128" lon="0.16234">
        <ele>1857</ele>
        <time>2010-01-01T03:22:38Z</time>
      </trkpt>
      <trkpt lat="42.93187" lon="0.16158">
        <ele>1879</ele>
        <time>2010-01-01T03:23:11Z</time>
      </trkpt>
      <trkpt lat="42.932" lon="0.16121">
        <ele>1885</ele>
        <time>2010-01-01T03:23:23Z</time>
      </trkpt>
      <trkpt lat="42.9323" lon="0.16092">
        <ele>1886</ele>
        <time>2010-01-01T03:23:38Z</time>
      </trkpt>
      <trkpt lat="42.93251" lon="0.16021">
        <ele>1890</ele>
        <time>2010-01-01T03:24:00Z</time>
      </trkpt>
      <trkpt lat="42.9322" lon="0.16013">
        <ele>1902</ele>
        <time>2010-01-01T03:24:13Z</time>
      </trkpt>
      <trkpt lat="42.93202" lon="0.16001">
        <ele>1908</ele>
        <time>2010-01-01T03:24:21Z</time>
      </trkpt>
      <trkpt lat="42.93219" lon="0.15979">
        <ele>1908</ele>
        <time>2010-01-01T03:24:31Z</time>
      </trkpt>
      <trkpt lat="42.93219" lon="0.15958">
        <ele>1913</ele>
        <time>2010-01-01T03:24:37Z</time>
      </trkpt>
      <trkpt lat="42.93182" lon="0.15935">
        <ele>1926</ele>
        <time>2010-01-01T03:24:53Z</time>
      </trkpt>
      <trkpt lat="42.93225" lon="0.1593">
        <ele>1919</ele>
        <time>2010-01-01T03:25:10Z</time>
      </trkpt>
      <trkpt lat="42.93202" lon="0.15888">
        <ele>1931</ele>
        <time>2010-01-01T03:25:25Z</time>
      </trkpt>
      <trkpt lat="42.93164" lon="0.15902">
        <ele>1941</ele>
        <time>2010-01-01T03:25:41Z</time>
      </trkpt>
      <trkpt lat="42.93187" lon="0.15834">
        <ele>1948</ele>
        <time>2010-01-01T03:26:03Z</time>
      </trkpt>
      <trkpt lat="42.93174" lon="0.15764">
        <ele>1965</ele>
        <time>2010-01-01T03:26:24Z</time>
      </trkpt>
      <trkpt lat="42.93162" lon="0.15731">
        <ele>1974</ele>
        <time>2010-01-01T03:26:35Z</time>
      </trkpt>
      <trkpt lat="42.93159" lon="0.15688">
        <ele>1981</ele>
        <time>2010-01-01T03:26:48Z</time>
      </trkpt>
      <trkpt lat="42.93133" lon="0.15628">
        <ele>1997</ele>
        <time>2010-01-01T03:27:08Z</time>
      </trkpt>
      <trkpt lat="42.93127" lon="0.15518">
        <ele>2031</ele>
        <time>2010-01-01T03:27:40Z</time>
      </trkpt>
      <trkpt lat="42.93107" lon="0.15436">
        <ele>2051</ele>
        <time>2010-01-01T03:28:06Z</time>
      </trkpt>
      <trkpt lat="42.9311" lon="0.15375">
        <ele>2069</ele>
        <time>2010-01-01T03:28:24Z</time>
      </trkpt>
      <trkpt lat="42.93088" lon="0.15346">
        <ele>2071</ele>
        <time>2010-01-01T03:28:36Z</time>
      </trkpt>
      <trkpt lat="42.93043" lon="0.15308">
        <ele>2076</ele>
        <time>2010-01-01T03:28:57Z</time>
      </trkpt>
      <trkpt lat="42.92991" lon="0.15415">
        <ele>2084</ele>
        <time>2010-01-01T03:29:35Z</time>
      </trkpt>
      <trkpt lat="42.92984" lon="0.1538">
        <ele>2094</ele>
        <time>2010-01-01T03:29:46Z</time>
      </trkpt>
      <trkpt lat="42.92988" lon="0.15307">
        <ele>2103</ele>
        <time>2010-01-01T03:30:07Z</time>
      </trkpt>
      <trkpt lat="42.92998" lon="0.15266">
        <ele>2108</ele>
        <time>2010-01-01T03:30:20Z</time>
      </trkpt>
      <trkpt lat="42.93021" lon="0.15198">
        <ele>2116</ele>
        <time>2010-01-01T03:30:42Z</time>
      </trkpt>
      <trkpt lat="42.93036" lon="0.15036">
        <ele>2149</ele>
        <time>2010-01-01T03:31:30Z</time>
      </trkpt>
      <trkpt lat="42.93003" lon="0.14963">
        <ele>2163</ele>
        <time>2010-01-01T03:31:55Z</time>
      </trkpt>
      <trkpt lat="42.92966" lon="0.14907">
        <ele>2173</ele>
        <time>2010-01-01T03:32:17Z</time>
      </trkpt>
      <trkpt lat="42.92909" lon="0.14784">
        <ele>2192</ele>
        <time>2010-01-01T03:33:00Z</time>
      </trkpt>
      <trkpt lat="42.92812" lon="0.14652">
        <ele>2231</ele>
        <time>2010-01-01T03:33:54Z</time>
      </trkpt>
      <trkpt lat="42.92811" lon="0.14585">
        <ele>2232</ele>
        <time>2010-01-01T03:34:14Z</time>
      </trkpt>
      <trkpt lat="42.9279" lon="0.14535">
        <ele>2241</ele>
        <time>2010-01-01T03:34:31Z</time>
      </trkpt>
      <trkpt lat="42.92777" lon="0.14479">
        <ele>2252</ele>
        <time>2010-01-01T03:34:48Z</time>
      </trkpt>
      <trkpt lat="42.92802" lon="0.14387">
        <ele>2268</ele>
        <time>2010-01-01T03:35:17Z</time>
      </trkpt>
      <trkpt lat="42.92826" lon="0.14331">
        <ele>2277</ele>
        <time>2010-01-01T03:35:36Z</time>
      </trkpt>
      <trkpt lat="42.92871" lon="0.1432">
        <ele>2271</ele>
        <time>2010-01-01T03:35:54Z</time>
      </trkpt>
      <trkpt lat="42.92886" lon="0.14298">
        <ele>2279</ele>
        <time>2010-01-01T03:36:03Z</time>
      </trkpt>
      <trkpt lat="42.92924" lon="0.143">
        <ele>2281</ele>
        <time>2010-01-01T03:36:18Z</time>
      </trkpt>
      <trkpt lat="42.9295" lon="0.14253">
        <ele>2304</ele>
        <time>2010-01-01T03:36:35Z</time>
      </trkpt>
      <trkpt lat="42.9298" lon="0.14157">
        <ele>2329</ele>
        <time>2010-01-01T03:37:06Z</time>
      </trkpt>
      <trkpt lat="42.93024" lon="0.14039">
        <ele>2354</ele>
        <time>2010-01-01T03:37:45Z</time>
      </trkpt>
      <trkpt lat="42.93054" lon="0.13953">
        <ele>2370</ele>
        <time>2010-01-01T03:38:13Z</time>
      </trkpt>
      <trkpt lat="42.93049" lon="0.13901">
        <ele>2379</ele>
        <time>2010-01-01T03:38:28Z</time>
      </trkpt>
      <trkpt lat="42.9304" lon="0.13862">
        <ele>2380</ele>
        <time>2010-01-01T03:38:40Z</time>
      </trkpt>
      <trkpt lat="42.93074" lon="0.13869">
        <ele>2378</ele>
        <time>2010-01-01T03:38:54Z</time>
      </trkpt>
      <trkpt lat="42.93105" lon="0.1387">
        <ele>2381</ele>
        <time>2010-01-01T03:39:06Z</time>
      </trkpt>
      <trkpt lat="42.93145" lon="0.13983">
        <ele>2399</ele>
        <time>2010-01-01T03:39:43Z</time>
      </trkpt>
      <trkpt lat="42.93178" lon="0.14089">
        <ele>2415</ele>
        <time>2010-01-01T03:40:17Z</time>
      </trkpt>
      <trkpt lat="42.93196" lon="0.14201">
        <ele>2431</ele>
        <time>2010-01-01T03:40:50Z</time>
      </trkpt>
      <trkpt lat="42.9318" lon="0.14263">
        <ele>2420</ele>
        <time>2010-01-01T03:41:10Z</time>
      </trkpt>
      <trkpt lat="42.93183" lon="0.14302">
        <ele>2421</ele>
        <time>2010-01-01T03:41:21Z</time>
      </trkpt>
      <trkpt lat="42.93198" lon="0.14299">
        <ele>2433</ele>
        <time>2010-01-01T03:41:28Z</time>
      </trkpt>
      <trkpt lat="42.93208" lon="0.14249">
        <ele>2441</ele>
        <time>2010-01-01T03:41:43Z</time>
      </trkpt>
      <trkpt lat="42.93224" lon="0.14151">
        <ele>2453</ele>
        <time>2010-01-01T03:42:12Z</time>
      </trkpt>
      <trkpt lat="42.93222" lon="0.1401">
        <ele>2449</ele>
        <time>2010-01-01T03:42:53Z</time>
      </trkpt>
      <trkpt lat="42.93268" lon="0.1385">
        <ele>2471</ele>
        <time>2010-01-01T03:43:44Z</time>
      </trkpt>
      <trkpt lat="42.93285" lon="0.13806">
        <ele>2480</ele>
        <time>2010-01-01T03:43:59Z</time>
      </trkpt>
      <trkpt lat="42.93283" lon="0.13742">
        <ele>2473</ele>
        <time>2010-01-01T03:44:17Z</time>
      </trkpt>
      <trkpt lat="42.93299" lon="0.13738">
        <ele>2487</ele>
        <time>2010-01-01T03:44:24Z</time>
      </trkpt>
      <trkpt lat="42.93297" lon="0.13762">
        <ele>2486</ele>
        <time>2010-01-01T03:44:31Z</time>
      </trkpt>
      <trkpt lat="42.93307" lon="0.13805">
        <ele>2499</ele>
        <time>2010-01-01T03:44:44Z</time>
      </trkpt>
      <trkpt lat="42.9331" lon="0.13904">
        <ele>2510</ele>
        <time>2010-01-01T03:45:13Z</time>
      </trkpt>
      <trkpt lat="42.93309" lon="0.13998">
        <ele>2520</ele>
        <time>2010-01-01T03:45:41Z</time>
      </trkpt>
      <trkpt lat="42.93302" lon="0.1409">
        <ele>2527</ele>
        <time>2010-01-01T03:46:08Z</time>
      </trkpt>
      <trkpt lat="42.93346" lon="0.13948">
        <ele>2544</ele>
        <time>2010-01-01T03:46:53Z</time>
      </trkpt>
      <trkpt lat="42.93362" lon="0.13852">
        <ele>2548</ele>
        <time>2010-01-01T03:47:22Z</time>
      </trkpt>
      <trkpt lat="42.93368" lon="0.13724">
        <ele>2548</ele>
        <time>2010-01-01T03:47:59Z</time>
      </trkpt>
      <trkpt lat="42.93393" lon="0.13631">
        <ele>2569</ele>
        <time>2010-01-01T03:48:28Z</time>
      </trkpt>
      <trkpt lat="42.934" lon="0.13524">
        <ele>2576</ele>
        <time>2010-01-01T03:49:00Z</time>
      </trkpt>
      <trkpt lat="42.93392" lon="0.13435">
        <ele>2566</ele>
        <time>2010-01-01T03:49:26Z</time>
      </trkpt>
      <trkpt lat="42.93414" lon="0.13431">
        <ele>2585</ele>
        <time>2010-01-01T03:49:35Z</time>
      </trkpt>
      <trkpt lat="42.93419" lon="0.13459">
        <ele>2592</ele>
        <time>2010-01-01T03:49:43Z</time>
      </trkpt>
      <trkpt lat="42.93434" lon="0.13547">
        <ele>2604</ele>
        <time>2010-01-01T03:50:10Z</time>
      </trkpt>
      <trkpt lat="42.93418" lon="0.13627">
        <ele>2592</ele>
        <time>2010-01-01T03:50:34Z</time>
      </trkpt>
      <trkpt lat="42.93423" lon="0.13669">
        <ele>2593</ele>
        <time>2010-01-01T03:50:47Z</time>
      </trkpt>
      <trkpt lat="42.93458" lon="0.13705">
        <ele>2614</ele>
        <time>2010-01-01T03:51:04Z</time>
      </trkpt>
      <trkpt lat="42.93473" lon="0.13683">
        <ele>2624</ele>
        <time>2010-01-01T03:51:13Z</time>
      </trkpt>
      <trkpt lat="42.93441" lon="0.13657">
        <ele>2605</ele>
        <time>2010-01-01T03:51:28Z</time>
      </trkpt>
      <trkpt lat="42.93453" lon="0.1358">
        <ele>2616</ele>
        <time>2010-01-01T03:51:51Z</time>
      </trkpt>
      <trkpt lat="42.93468" lon="0.13545">
        <ele>2624</ele>
        <time>2010-01-01T03:52:03Z</time>
      </trkpt>
      <trkpt lat="42.93497" lon="0.13523">
        <ele>2634</ele>
        <time>2010-01-01T03:52:16Z</time>
      </trkpt>
      <trkpt lat="42.93532" lon="0.13511">
        <ele>2642</ele>
        <time>2010-01-01T03:52:30Z</time>
      </trkpt>
      <trkpt lat="42.93557" lon="0.13508">
        <ele>2645</ele>
        <time>2010-01-01T03:52:41Z</time>
      </trkpt>
      <trkpt lat="42.93565" lon="0.13539">
        <ele>2645</ele>
        <time>2010-01-01T03:52:50Z</time>
      </trkpt>
      <trkpt lat="42.93573" lon="0.13609">
        <ele>2657</ele>
        <time>2010-01-01T03:53:11Z</time>
      </trkpt>
      <trkpt lat="42.93546" lon="0.13677">
        <ele>2658</ele>
        <time>2010-01-01T03:53:33Z</time>
      </trkpt>
      <trkpt lat="42.93548" lon="0.1371">
        <ele>2661</ele>
        <time>2010-01-01T03:53:43Z</time>
      </trkpt>
      <trkpt lat="42.93584" lon="0.13674">
        <ele>2673</ele>
        <time>2010-01-01T03:54:01Z</time>
      </trkpt>
      <trkpt lat="42.93639" lon="0.13628">
        <ele>2676</ele>
        <time>2010-01-01T03:54:27Z</time>
      </trkpt>
      <trkpt lat="42.93631" lon="0.1373">
        <ele>2702</ele>
        <time>2010-01-01T03:54:57Z</time>
      </trkpt>
      <trkpt lat="42.93635" lon="0.13799">
        <ele>2721</ele>
        <time>2010-01-01T03:55:17Z</time>
      </trkpt>
      <trkpt lat="42.93675" lon="0.13776">
        <ele>2727</ele>
        <time>2010-01-01T03:55:34Z</time>
      </trkpt>
      <trkpt lat="42.9366" lon="0.13839">
        <ele>2743</ele>
        <time>2010-01-01T03:55:54Z</time>
      </trkpt>
      <trkpt lat="42.93686" lon="0.13813">
        <ele>2745</ele>
        <time>2010-01-01T03:56:07Z</time>
      </trkpt>
      <trkpt lat="42.93696" lon="0.13803">
        <ele>2739</ele>
        <time>2010-01-01T03:56:12Z</time>
      </trkpt>
      <trkpt lat="42.93673" lon="0.13887">
        <ele>2762</ele>
        <time>2010-01-01T03:56:38Z</time>
      </trkpt>
      <trkpt lat="42.9366" lon="0.13971">
        <ele>2786</ele>
        <time>2010-01-01T03:57:03Z</time>
      </trkpt>
      <trkpt lat="42.93708" lon="0.13926">
        <ele>2788</ele>
        <time>2010-01-01T03:57:27Z</time>
      </trkpt>
      <trkpt lat="42.93697" lon="0.1401">
        <ele>2819</ele>
        <time>2010-01-01T03:57:52Z</time>
      </trkpt>
      <trkpt lat="42.93722" lon="0.13992">
        <ele>2819</ele>
        <time>2010-01-01T03:58:03Z</time>
      </trkpt>
      <trkpt lat="42.93702" lon="0.14071">
        <ele>2842</ele>
        <time>2010-01-01T03:58:27Z</time>
      </trkpt>
      <trkpt lat="42.93689" lon="0.14138">
        <ele>2844</ele>
        <time>2010-01-01T03:58:48Z</time>
      </trkpt>
      <trkpt lat="42.93675" lon="0.14174">
        <ele>2841</ele>
        <time>2010-01-01T03:59:00Z</time>
      </trkpt>
      <trkpt lat="42.93686" lon="0.14134">
        <ele>2844</ele>
        <time>2010-01-01T03:59:12Z</time>
      </trkpt>
      <trkpt lat="42.93698" lon="0.14071">
        <ele>2841</ele>
        <time>2010-01-01T03:59:31Z</time>
      </trkpt>
      <trkpt lat="42.93718" lon="0.13992">
        <ele>2818</ele>
        <time>2010-01-01T03:59:56Z</time>
      </trkpt>
      <trkpt lat="42.93693" lon="0.14011">
        <ele>2818</ele>
        <time>2010-01-01T04:00:07Z</time>
      </trkpt>
      <trkpt lat="42.93713" lon="0.13923">
        <ele>2788</ele>
        <time>2010-01-01T04:00:34Z</time>
      </trkpt>
      <trkpt lat="42.93662" lon="0.13965">
        <ele>2785</ele>
        <time>2010-01-01T04:00:57Z</time>
      </trkpt>
      <trkpt lat="42.9367" lon="0.13886">
        <ele>2761</ele>
        <time>2010-01-01T04:01:21Z</time>
      </trkpt>
      <trkpt lat="42.93694" lon="0.13812">
        <ele>2744</ele>
        <time>2010-01-01T04:01:44Z</time>
      </trkpt>
      <trkpt lat="42.93685" lon="0.1382">
        <ele>2747</ele>
        <time>2010-01-01T04:01:48Z</time>
      </trkpt>
      <trkpt lat="42.93657" lon="0.13841">
        <ele>2743</ele>
        <time>2010-01-01T04:02:01Z</time>
      </trkpt>
      <trkpt lat="42.93673" lon="0.13773">
        <ele>2726</ele>
        <time>2010-01-01T04:02:22Z</time>
      </trkpt>
      <trkpt lat="42.93634" lon="0.13808">
        <ele>2722</ele>
        <time>2010-01-01T04:02:40Z</time>
      </trkpt>
      <trkpt lat="42.93628" lon="0.13723">
        <ele>2698</ele>
        <time>2010-01-01T04:03:05Z</time>
      </trkpt>
      <trkpt lat="42.93636" lon="0.13632">
        <ele>2677</ele>
        <time>2010-01-01T04:03:32Z</time>
      </trkpt>
      <trkpt lat="42.93591" lon="0.13667">
        <ele>2675</ele>
        <time>2010-01-01T04:03:53Z</time>
      </trkpt>
      <trkpt lat="42.93551" lon="0.13708">
        <ele>2663</ele>
        <time>2010-01-01T04:04:12Z</time>
      </trkpt>
      <trkpt lat="42.93549" lon="0.13676">
        <ele>2659</ele>
        <time>2010-01-01T04:04:22Z</time>
      </trkpt>
      <trkpt lat="42.93568" lon="0.13609">
        <ele>2656</ele>
        <time>2010-01-01T04:04:43Z</time>
      </trkpt>
      <trkpt lat="42.93565" lon="0.13539">
        <ele>2645</ele>
        <time>2010-01-01T04:05:04Z</time>
      </trkpt>
      <trkpt lat="42.93553" lon="0.13503">
        <ele>2647</ele>
        <time>2010-01-01T04:05:15Z</time>
      </trkpt>
      <trkpt lat="42.93523" lon="0.13507">
        <ele>2642</ele>
        <time>2010-01-01T04:05:27Z</time>
      </trkpt>
      <trkpt lat="42.93464" lon="0.13546">
        <ele>2623</ele>
        <time>2010-01-01T04:05:53Z</time>
      </trkpt>
      <trkpt lat="42.93447" lon="0.13607">
        <ele>2611</ele>
        <time>2010-01-01T04:06:13Z</time>
      </trkpt>
      <trkpt lat="42.93441" lon="0.13657">
        <ele>2605</ele>
        <time>2010-01-01T04:06:27Z</time>
      </trkpt>
      <trkpt lat="42.93469" lon="0.13692">
        <ele>2621</ele>
        <time>2010-01-01T04:06:43Z</time>
      </trkpt>
      <trkpt lat="42.93451" lon="0.13708">
        <ele>2610</ele>
        <time>2010-01-01T04:06:51Z</time>
      </trkpt>
      <trkpt lat="42.93423" lon="0.13669">
        <ele>2593</ele>
        <time>2010-01-01T04:07:07Z</time>
      </trkpt>
      <trkpt lat="42.93418" lon="0.13627">
        <ele>2592</ele>
        <time>2010-01-01T04:07:20Z</time>
      </trkpt>
      <trkpt lat="42.93432" lon="0.13556">
        <ele>2603</ele>
        <time>2010-01-01T04:07:41Z</time>
      </trkpt>
      <trkpt lat="42.93422" lon="0.13486">
        <ele>2595</ele>
        <time>2010-01-01T04:08:02Z</time>
      </trkpt>
      <trkpt lat="42.93414" lon="0.13431">
        <ele>2585</ele>
        <time>2010-01-01T04:08:18Z</time>
      </trkpt>
      <trkpt lat="42.93392" lon="0.13435">
        <ele>2566</ele>
        <time>2010-01-01T04:08:27Z</time>
      </trkpt>
      <trkpt lat="42.934" lon="0.13524">
        <ele>2576</ele>
        <time>2010-01-01T04:08:54Z</time>
      </trkpt>
      <trkpt lat="42.93397" lon="0.13609">
        <ele>2573</ele>
        <time>2010-01-01T04:09:19Z</time>
      </trkpt>
      <trkpt lat="42.93392" lon="0.13662">
        <ele>2567</ele>
        <time>2010-01-01T04:09:34Z</time>
      </trkpt>
      <trkpt lat="42.93368" lon="0.13724">
        <ele>2548</ele>
        <time>2010-01-01T04:09:55Z</time>
      </trkpt>
      <trkpt lat="42.93362" lon="0.13852">
        <ele>2548</ele>
        <time>2010-01-01T04:10:32Z</time>
      </trkpt>
      <trkpt lat="42.93342" lon="0.1396">
        <ele>2542</ele>
        <time>2010-01-01T04:11:05Z</time>
      </trkpt>
      <trkpt lat="42.93302" lon="0.1409">
        <ele>2527</ele>
        <time>2010-01-01T04:11:46Z</time>
      </trkpt>
      <trkpt lat="42.93309" lon="0.13998">
        <ele>2520</ele>
        <time>2010-01-01T04:12:13Z</time>
      </trkpt>
      <trkpt lat="42.93308" lon="0.13901">
        <ele>2508</ele>
        <time>2010-01-01T04:12:42Z</time>
      </trkpt>
      <trkpt lat="42.93305" lon="0.13799">
        <ele>2497</ele>
        <time>2010-01-01T04:13:12Z</time>
      </trkpt>
      <trkpt lat="42.93298" lon="0.13767">
        <ele>2487</ele>
        <time>2010-01-01T04:13:22Z</time>
      </trkpt>
      <trkpt lat="42.93299" lon="0.13738">
        <ele>2487</ele>
        <time>2010-01-01T04:13:30Z</time>
      </trkpt>
      <trkpt lat="42.93281" lon="0.13751">
        <ele>2471</ele>
        <time>2010-01-01T04:13:38Z</time>
      </trkpt>
      <trkpt lat="42.93285" lon="0.13797">
        <ele>2479</ele>
        <time>2010-01-01T04:13:51Z</time>
      </trkpt>
      <trkpt lat="42.93268" lon="0.1385">
        <ele>2471</ele>
        <time>2010-01-01T04:14:08Z</time>
      </trkpt>
      <trkpt lat="42.93222" lon="0.1401">
        <ele>2449</ele>
        <time>2010-01-01T04:14:59Z</time>
      </trkpt>
      <trkpt lat="42.93224" lon="0.14151">
        <ele>2453</ele>
        <time>2010-01-01T04:15:40Z</time>
      </trkpt>
      <trkpt lat="42.93204" lon="0.14259">
        <ele>2438</ele>
        <time>2010-01-01T04:16:13Z</time>
      </trkpt>
      <trkpt lat="42.93198" lon="0.14299">
        <ele>2433</ele>
        <time>2010-01-01T04:16:25Z</time>
      </trkpt>
      <trkpt lat="42.93178" lon="0.14303">
        <ele>2418</ele>
        <time>2010-01-01T04:16:33Z</time>
      </trkpt>
      <trkpt lat="42.9318" lon="0.14263">
        <ele>2420</ele>
        <time>2010-01-01T04:16:44Z</time>
      </trkpt>
      <trkpt lat="42.93196" lon="0.14201">
        <ele>2431</ele>
        <time>2010-01-01T04:17:04Z</time>
      </trkpt>
      <trkpt lat="42.93191" lon="0.14146">
        <ele>2425</ele>
        <time>2010-01-01T04:17:20Z</time>
      </trkpt>
      <trkpt lat="42.93169" lon="0.14058">
        <ele>2409</ele>
        <time>2010-01-01T04:17:47Z</time>
      </trkpt>
      <trkpt lat="42.93142" lon="0.13968">
        <ele>2399</ele>
        <time>2010-01-01T04:18:16Z</time>
      </trkpt>
      <trkpt lat="42.93106" lon="0.13865">
        <ele>2381</ele>
        <time>2010-01-01T04:18:49Z</time>
      </trkpt>
      <trkpt lat="42.9304" lon="0.13859">
        <ele>2380</ele>
        <time>2010-01-01T04:19:15Z</time>
      </trkpt>
      <trkpt lat="42.93036" lon="0.13836">
        <ele>2379</ele>
        <time>2010-01-01T04:19:22Z</time>
      </trkpt>
      <trkpt lat="42.93004" lon="0.13835">
        <ele>2378</ele>
        <time>2010-01-01T04:19:35Z</time>
      </trkpt>
      <trkpt lat="42.92881" lon="0.13861">
        <ele>2370</ele>
        <time>2010-01-01T04:20:25Z</time>
      </trkpt>
      <trkpt lat="42.92745" lon="0.13787">
        <ele>2345</ele>
        <time>2010-01-01T04:21:24Z</time>
      </trkpt>
      <trkpt lat="42.92626" lon="0.13725">
        <ele>2325</ele>
        <time>2010-01-01T04:22:15Z</time>
      </trkpt>
      <trkpt lat="42.92695" lon="0.13674">
        <ele>2301</ele>
        <time>2010-01-01T04:22:46Z</time>
      </trkpt>
      <trkpt lat="42.92693" lon="0.13636">
        <ele>2290</ele>
        <time>2010-01-01T04:22:57Z</time>
      </trkpt>
      <trkpt lat="42.92634" lon="0.13547">
        <ele>2271</ele>
        <time>2010-01-01T04:23:32Z</time>
      </trkpt>
      <trkpt lat="42.92562" lon="0.1344">
        <ele>2243</ele>
        <time>2010-01-01T04:24:15Z</time>
      </trkpt>
      <trkpt lat="42.92553" lon="0.13495">
        <ele>2247</ele>
        <time>2010-01-01T04:24:31Z</time>
      </trkpt>
      <trkpt lat="42.92553" lon="0.13469">
        <ele>2244</ele>
        <time>2010-01-01T04:24:39Z</time>
      </trkpt>
      <trkpt lat="42.92495" lon="0.1343">
        <ele>2230</ele>
        <time>2010-01-01T04:25:05Z</time>
      </trkpt>
      <trkpt lat="42.92369" lon="0.13321">
        <ele>2212</ele>
        <time>2010-01-01T04:26:04Z</time>
      </trkpt>
      <trkpt lat="42.92255" lon="0.13275">
        <ele>2201</ele>
        <time>2010-01-01T04:26:52Z</time>
      </trkpt>
      <trkpt lat="42.92137" lon="0.13263">
        <ele>2191</ele>
        <time>2010-01-01T04:27:39Z</time>
      </trkpt>
      <trkpt lat="42.92046" lon="0.13217">
        <ele>2180</ele>
        <time>2010-01-01T04:28:18Z</time>
      </trkpt>
      <trkpt lat="42.91972" lon="0.13208">
        <ele>2165</ele>
        <time>2010-01-01T04:28:48Z</time>
      </trkpt>
      <trkpt lat="42.91954" lon="0.13233">
        <ele>2162</ele>
        <time>2010-01-01T04:28:58Z</time>
      </trkpt>
      <trkpt lat="42.9191" lon="0.13188">
        <ele>2151</ele>
        <time>2010-01-01T04:29:20Z</time>
      </trkpt>
      <trkpt lat="42.91816" lon="0.13185">
        <ele>2132</ele>
        <time>2010-01-01T04:29:58Z</time>
      </trkpt>
      <trkpt lat="42.91812" lon="0.13123">
        <ele>2140</ele>
        <time>2010-01-01T04:30:16Z</time>
      </trkpt>
      <trkpt lat="42.91734" lon="0.13235">
        <ele>2113</ele>
        <time>2010-01-01T04:31:01Z</time>
      </trkpt>
      <trkpt lat="42.91747" lon="0.13176">
        <ele>2104</ele>
        <time>2010-01-01T04:31:20Z</time>
      </trkpt>
      <trkpt lat="42.91661" lon="0.13092">
        <ele>2077</ele>
        <time>2010-01-01T04:32:02Z</time>
      </trkpt>
      <trkpt lat="42.91563" lon="0.13026">
        <ele>2052</ele>
        <time>2010-01-01T04:32:46Z</time>
      </trkpt>
      <trkpt lat="42.91418" lon="0.12904">
        <ele>2025</ele>
        <time>2010-01-01T04:33:54Z</time>
      </trkpt>
      <trkpt lat="42.91372" lon="0.12794">
        <ele>2006</ele>
        <time>2010-01-01T04:34:31Z</time>
      </trkpt>
      <trkpt lat="42.91354" lon="0.12693">
        <ele>1998</ele>
        <time>2010-01-01T04:35:01Z</time>
      </trkpt>
      <trkpt lat="42.91339" lon="0.12832">
        <ele>1983</ele>
        <time>2010-01-01T04:35:43Z</time>
      </trkpt>
      <trkpt lat="42.91328" lon="0.12945">
        <ele>1970</ele>
        <time>2010-01-01T04:36:16Z</time>
      </trkpt>
      <trkpt lat="42.91315" lon="0.13065">
        <ele>1954</ele>
        <time>2010-01-01T04:36:52Z</time>
      </trkpt>
      <trkpt lat="42.91285" lon="0.13143">
        <ele>1942</ele>
        <time>2010-01-01T04:37:17Z</time>
      </trkpt>
      <trkpt lat="42.91196" lon="0.13386">
        <ele>1900</ele>
        <time>2010-01-01T04:38:37Z</time>
      </trkpt>
      <trkpt lat="42.91154" lon="0.13402">
        <ele>1892</ele>
        <time>2010-01-01T04:38:54Z</time>
      </trkpt>
      <trkpt lat="42.91081" lon="0.13331">
        <ele>1881</ele>
        <time>2010-01-01T04:39:30Z</time>
      </trkpt>
      <trkpt lat="42.90987" lon="0.13314">
        <ele>1855</ele>
        <time>2010-01-01T04:40:08Z</time>
      </trkpt>
      <trkpt lat="42.90866" lon="0.13257">
        <ele>1816</ele>
        <time>2010-01-01T04:40:59Z</time>
      </trkpt>
      <trkpt lat="42.9075" lon="0.13188">
        <ele>1774</ele>
        <time>2010-01-01T04:41:50Z</time>
      </trkpt>
      <trkpt lat="42.90621" lon="0.13186">
        <ele>1739</ele>
        <time>2010-01-01T04:42:42Z</time>
      </trkpt>
      <trkpt lat="42.90556" lon="0.1316">
        <ele>1741</ele>
        <time>2010-01-01T04:43:09Z</time>
      </trkpt>
      <trkpt lat="42.9066" lon="0.12967">
        <ele>1719</ele>
        <time>2010-01-01T04:44:19Z</time>
      </trkpt>
      <trkpt lat="42.90672" lon="0.12173">
        <ele>1667</ele>
        <time>2010-01-01T04:48:12Z</time>
      </trkpt>
      <trkpt lat="42.90709" lon="0.11784">
        <ele>1640</ele>
        <time>2010-01-01T04:50:07Z</time>
      </trkpt>
      <trkpt lat="42.907" lon="0.11365">
        <ele>1600</ele>
        <time>2010-01-01T04:52:10Z</time>
      </trkpt>
      <trkpt lat="42.90661" lon="0.11088">
        <ele>1573</ele>
        <time>2010-01-01T04:53:32Z</time>
      </trkpt>
      <trkpt lat="42.90575" lon="0.10826">
        <ele>1547</ele>
        <time>2010-01-01T04:54:57Z</time>
      </trkpt>
      <trkpt lat="42.90491" lon="0.10564">
        <ele>1505</ele>
        <time>2010-01-01T04:56:20Z</time>
      </trkpt>
      <trkpt lat="42.90431" lon="0.10463">
        <ele>1485</ele>
        <time>2010-01-01T04:56:58Z</time>
      </trkpt>
      <trkpt lat="42.90356" lon="0.10351">
        <ele>1471</ele>
        <time>2010-01-01T04:57:43Z</time>
      </trkpt>
      <trkpt lat="42.90325" lon="0.10241">
        <ele>1460</ele>
        <time>2010-01-01T04:58:18Z</time>
      </trkpt>
      <trkpt lat="42.90258" lon="0.10322">
        <ele>1469</ele>
        <time>2010-01-01T04:58:53Z</time>
      </trkpt>
      <trkpt lat="42.90182" lon="0.10343">
        <ele>1474</ele>
        <time>2010-01-01T04:59:24Z</time>
      </trkpt>
      <trkpt lat="42.90114" lon="0.10398">
        <ele>1482</ele>
        <time>2010-01-01T04:59:56Z</time>
      </trkpt>
      <trkpt lat="42.9004" lon="0.10431">
        <ele>1490</ele>
        <time>2010-01-01T05:00:27Z</time>
      </trkpt>
      <trkpt lat="42.89949" lon="0.10474">
        <ele>1503</ele>
        <time>2010-01-01T05:01:06Z</time>
      </trkpt>
      <trkpt lat="42.89878" lon="0.10526">
        <ele>1514</ele>
        <time>2010-01-01T05:01:38Z</time>
      </trkpt>
      <trkpt lat="42.89814" lon="0.10571">
        <ele>1518</ele>
        <time>2010-01-01T05:02:07Z</time>
      </trkpt>
      <trkpt lat="42.89763" lon="0.10601">
        <ele>1521</ele>
        <time>2010-01-01T05:02:29Z</time>
      </trkpt>
      <trkpt lat="42.89678" lon="0.1061">
        <ele>1526</ele>
        <time>2010-01-01T05:03:03Z</time>
      </trkpt>
      <trkpt lat="42.89645" lon="0.10636">
        <ele>1536</ele>
        <time>2010-01-01T05:03:19Z</time>
      </trkpt>
      <trkpt lat="42.89568" lon="0.10633">
        <ele>1545</ele>
        <time>2010-01-01T05:03:49Z</time>
      </trkpt>
      <trkpt lat="42.89517" lon="0.10659">
        <ele>1556</ele>
        <time>2010-01-01T05:04:11Z</time>
      </trkpt>
      <trkpt lat="42.8947" lon="0.10676">
        <ele>1569</ele>
        <time>2010-01-01T05:04:30Z</time>
      </trkpt>
      <trkpt lat="42.8936" lon="0.10656">
        <ele>1587</ele>
        <time>2010-01-01T05:05:15Z</time>
      </trkpt>
      <trkpt lat="42.89168" lon="0.107">
        <ele>1637</ele>
        <time>2010-01-01T05:06:33Z</time>
      </trkpt>
      <trkpt lat="42.8908" lon="0.10713">
        <ele>1649</ele>
        <time>2010-01-01T05:07:08Z</time>
      </trkpt>
      <trkpt lat="42.89045" lon="0.10751">
        <ele>1663</ele>
        <time>2010-01-01T05:07:26Z</time>
      </trkpt>
      <trkpt lat="42.88955" lon="0.10739">
        <ele>1659</ele>
        <time>2010-01-01T05:08:02Z</time>
      </trkpt>
      <trkpt lat="42.88895" lon="0.10775">
        <ele>1672</ele>
        <time>2010-01-01T05:08:29Z</time>
      </trkpt>
      <trkpt lat="42.88831" lon="0.10808">
        <ele>1683</ele>
        <time>2010-01-01T05:08:56Z</time>
      </trkpt>
      <trkpt lat="42.88762" lon="0.10832">
        <ele>1690</ele>
        <time>2010-01-01T05:09:25Z</time>
      </trkpt>
      <trkpt lat="42.88696" lon="0.10828">
        <ele>1691</ele>
        <time>2010-01-01T05:09:51Z</time>
      </trkpt>
      <trkpt lat="42.88624" lon="0.10813">
        <ele>1702</ele>
        <time>2010-01-01T05:10:20Z</time>
      </trkpt>
      <trkpt lat="42.88625" lon="0.10843">
        <ele>1708</ele>
        <time>2010-01-01T05:10:29Z</time>
      </trkpt>
      <trkpt lat="42.8865" lon="0.10888">
        <ele>1711</ele>
        <time>2010-01-01T05:10:46Z</time>
      </trkpt>
      <trkpt lat="42.88612" lon="0.10886">
        <ele>1716</ele>
        <time>2010-01-01T05:11:01Z</time>
      </trkpt>
      <trkpt lat="42.88542" lon="0.10959">
        <ele>1737</ele>
        <time>2010-01-01T05:11:36Z</time>
      </trkpt>
      <trkpt lat="42.885" lon="0.11001">
        <ele>1742</ele>
        <time>2010-01-01T05:11:57Z</time>
      </trkpt>
      <trkpt lat="42.88443" lon="0.11061">
        <ele>1743</ele>
        <time>2010-01-01T05:12:26Z</time>
      </trkpt>
      <trkpt lat="42.88391" lon="0.11161">
        <ele>1752</ele>
        <time>2010-01-01T05:13:02Z</time>
      </trkpt>
      <trkpt lat="42.88339" lon="0.11154">
        <ele>1750</ele>
        <time>2010-01-01T05:13:23Z</time>
      </trkpt>
      <trkpt lat="42.88316" lon="0.11206">
        <ele>1756</ele>
        <time>2010-01-01T05:13:41Z</time>
      </trkpt>
      <trkpt lat="42.88306" lon="0.11292">
        <ele>1765</ele>
        <time>2010-01-01T05:14:06Z</time>
      </trkpt>
      <trkpt lat="42.88278" lon="0.11364">
        <ele>1776</ele>
        <time>2010-01-01T05:14:30Z</time>
      </trkpt>
      <trkpt lat="42.8829" lon="0.11403">
        <ele>1778</ele>
        <time>2010-01-01T05:14:43Z</time>
      </trkpt>
      <trkpt lat="42.88269" lon="0.11468">
        <ele>1787</ele>
        <time>2010-01-01T05:15:03Z</time>
      </trkpt>
      <trkpt lat="42.88258" lon="0.11563">
        <ele>1802</ele>
        <time>2010-01-01T05:15:32Z</time>
      </trkpt>
      <trkpt lat="42.8826" lon="0.11685">
        <ele>1823</ele>
        <time>2010-01-01T05:16:08Z</time>
      </trkpt>
      <trkpt lat="42.8824" lon="0.11765">
        <ele>1841</ele>
        <time>2010-01-01T05:16:32Z</time>
      </trkpt>
      <trkpt lat="42.8823" lon="0.11824">
        <ele>1851</ele>
        <time>2010-01-01T05:16:50Z</time>
      </trkpt>
      <trkpt lat="42.88229" lon="0.11903">
        <ele>1860</ele>
        <time>2010-01-01T05:17:13Z</time>
      </trkpt>
      <trkpt lat="42.88196" lon="0.1195">
        <ele>1882</ele>
        <time>2010-01-01T05:17:32Z</time>
      </trkpt>
      <trkpt lat="42.88179" lon="0.12006">
        <ele>1900</ele>
        <time>2010-01-01T05:17:50Z</time>
      </trkpt>
      <trkpt lat="42.8821" lon="0.12057">
        <ele>1893</ele>
        <time>2010-01-01T05:18:09Z</time>
      </trkpt>
      <trkpt lat="42.88249" lon="0.1211">
        <ele>1893</ele>
        <time>2010-01-01T05:18:31Z</time>
      </trkpt>
      <trkpt lat="42.88233" lon="0.12199">
        <ele>1902</ele>
        <time>2010-01-01T05:18:58Z</time>
      </trkpt>
      <trkpt lat="42.8822" lon="0.12236">
        <ele>1901</ele>
        <time>2010-01-01T05:19:10Z</time>
      </trkpt>
      <trkpt lat="42.88203" lon="0.12265">
        <ele>1904</ele>
        <time>2010-01-01T05:19:21Z</time>
      </trkpt>
      <trkpt lat="42.88199" lon="0.12327">
        <ele>1901</ele>
        <time>2010-01-01T05:19:40Z</time>
      </trkpt>
      <trkpt lat="42.88187" lon="0.12384">
        <ele>1904</ele>
        <time>2010-01-01T05:19:57Z</time>
      </trkpt>
      <trkpt lat="42.88194" lon="0.12473">
        <ele>1907</ele>
        <time>2010-01-01T05:20:23Z</time>
      </trkpt>
      <trkpt lat="42.88208" lon="0.12542">
        <ele>1909</ele>
        <time>2010-01-01T05:20:44Z</time>
      </trkpt>
      <trkpt lat="42.88198" lon="0.12589">
        <ele>1914</ele>
        <time>2010-01-01T05:20:59Z</time>
      </trkpt>
      <trkpt lat="42.88201" lon="0.12711">
        <ele>1923</ele>
        <time>2010-01-01T05:21:34Z</time>
      </trkpt>
      <trkpt lat="42.88207" lon="0.12757">
        <ele>1926</ele>
        <time>2010-01-01T05:21:48Z</time>
      </trkpt>
      <trkpt lat="42.8819" lon="0.1281">
        <ele>1929</ele>
        <time>2010-01-01T05:22:05Z</time>
      </trkpt>
      <trkpt lat="42.88183" lon="0.12883">
        <ele>1937</ele>
        <time>2010-01-01T05:22:27Z</time>
      </trkpt>
      <trkpt lat="42.88162" lon="0.12956">
        <ele>1945</ele>
        <time>2010-01-01T05:22:50Z</time>
      </trkpt>
      <trkpt lat="42.8816" lon="0.13005">
        <ele>1945</ele>
        <time>2010-01-01T05:23:04Z</time>
      </trkpt>
      <trkpt lat="42.88152" lon="0.13057">
        <ele>1943</ele>
        <time>2010-01-01T05:23:20Z</time>
      </trkpt>
      <trkpt lat="42.88146" lon="0.13107">
        <ele>1942</ele>
        <time>2010-01-01T05:23:34Z</time>
      </trkpt>
      <trkpt lat="42.88136" lon="0.1316">
        <ele>1950</ele>
        <time>2010-01-01T05:23:51Z</time>
      </trkpt>
      <trkpt lat="42.88123" lon="0.13268">
        <ele>1959</ele>
        <time>2010-01-01T05:24:23Z</time>
      </trkpt>
      <trkpt lat="42.88119" lon="0.13376">
        <ele>1955</ele>
        <time>2010-01-01T05:24:54Z</time>
      </trkpt>
      <trkpt lat="42.88118" lon="0.13455">
        <ele>1959</ele>
        <time>2010-01-01T05:25:18Z</time>
      </trkpt>
      <trkpt lat="42.88126" lon="0.135">
        <ele>1966</ele>
        <time>2010-01-01T05:25:31Z</time>
      </trkpt>
      <trkpt lat="42.88115" lon="0.13566">
        <ele>1980</ele>
        <time>2010-01-01T05:25:51Z</time>
      </trkpt>
      <trkpt lat="42.88109" lon="0.13698">
        <ele>2003</ele>
        <time>2010-01-01T05:26:30Z</time>
      </trkpt>
      <trkpt lat="42.88093" lon="0.1379">
        <ele>2022</ele>
        <time>2010-01-01T05:26:58Z</time>
      </trkpt>
      <trkpt lat="42.88029" lon="0.13744">
        <ele>2009</ele>
        <time>2010-01-01T05:27:27Z</time>
      </trkpt>
      <trkpt lat="42.87984" lon="0.13849">
        <ele>2026</ele>
        <time>2010-01-01T05:28:02Z</time>
      </trkpt>
      <trkpt lat="42.87948" lon="0.13939">
        <ele>2037</ele>
        <time>2010-01-01T05:28:33Z</time>
      </trkpt>
      <trkpt lat="42.87956" lon="0.14027">
        <ele>2050</ele>
        <time>2010-01-01T05:28:59Z</time>
      </trkpt>
      <trkpt lat="42.87946" lon="0.14089">
        <ele>2063</ele>
        <time>2010-01-01T05:29:17Z</time>
      </trkpt>
      <trkpt lat="42.87902" lon="0.14179">
        <ele>2072</ele>
        <time>2010-01-01T05:29:49Z</time>
      </trkpt>
      <trkpt lat="42.87883" lon="0.14279">
        <ele>2079</ele>
        <time>2010-01-01T05:30:19Z</time>
      </trkpt>
      <trkpt lat="42.87849" lon="0.14318">
        <ele>2079</ele>
        <time>2010-01-01T05:30:37Z</time>
      </trkpt>
      <trkpt lat="42.8782" lon="0.14417">
        <ele>2083</ele>
        <time>2010-01-01T05:31:08Z</time>
      </trkpt>
      <trkpt lat="42.87815" lon="0.14515">
        <ele>2098</ele>
        <time>2010-01-01T05:31:37Z</time>
      </trkpt>
      <trkpt lat="42.87786" lon="0.14595">
        <ele>2108</ele>
        <time>2010-01-01T05:32:03Z</time>
      </trkpt>
      <trkpt lat="42.87743" lon="0.14592">
        <ele>2113</ele>
        <time>2010-01-01T05:32:21Z</time>
      </trkpt>
      <trkpt lat="42.87678" lon="0.14622">
        <ele>2119</ele>
        <time>2010-01-01T05:32:48Z</time>
      </trkpt>
      <trkpt lat="42.87646" lon="0.14687">
        <ele>2120</ele>
        <time>2010-01-01T05:33:11Z</time>
      </trkpt>
      <trkpt lat="42.87613" lon="0.14807">
        <ele>2124</ele>
        <time>2010-01-01T05:33:49Z</time>
      </trkpt>
      <trkpt lat="42.87558" lon="0.14876">
        <ele>2132</ele>
        <time>2010-01-01T05:34:19Z</time>
      </trkpt>
      <trkpt lat="42.87533" lon="0.14957">
        <ele>2139</ele>
        <time>2010-01-01T05:34:44Z</time>
      </trkpt>
      <trkpt lat="42.87524" lon="0.15084">
        <ele>2149</ele>
        <time>2010-01-01T05:35:22Z</time>
      </trkpt>
      <trkpt lat="42.87513" lon="0.15159">
        <ele>2156</ele>
        <time>2010-01-01T05:35:44Z</time>
      </trkpt>
      <trkpt lat="42.8753" lon="0.15187">
        <ele>2157</ele>
        <time>2010-01-01T05:35:55Z</time>
      </trkpt>
      <trkpt lat="42.87601" lon="0.15219">
        <ele>2157</ele>
        <time>2010-01-01T05:36:25Z</time>
      </trkpt>
      <trkpt lat="42.87617" lon="0.15465">
        <ele>2168</ele>
        <time>2010-01-01T05:37:37Z</time>
      </trkpt>
      <trkpt lat="42.87669" lon="0.15626">
        <ele>2199</ele>
        <time>2010-01-01T05:38:29Z</time>
      </trkpt>
      <trkpt lat="42.87758" lon="0.15846">
        <ele>2206</ele>
        <time>2010-01-01T05:39:42Z</time>
      </trkpt>
      <trkpt lat="42.87778" lon="0.1611">
        <ele>2228</ele>
        <time>2010-01-01T05:41:00Z</time>
      </trkpt>
      <trkpt lat="42.87727" lon="0.16297">
        <ele>2253</ele>
        <time>2010-01-01T05:41:59Z</time>
      </trkpt>
      <trkpt lat="42.87727" lon="0.16421">
        <ele>2265</ele>
        <time>2010-01-01T05:42:35Z</time>
      </trkpt>
      <trkpt lat="42.87665" lon="0.16626">
        <ele>2288</ele>
        <time>2010-01-01T05:43:40Z</time>
      </trkpt>
      <trkpt lat="42.87598" lon="0.16791">
        <ele>2313</ele>
        <time>2010-01-01T05:44:36Z</time>
      </trkpt>
      <trkpt lat="42.87592" lon="0.1686">
        <ele>2322</ele>
        <time>2010-01-01T05:44:56Z</time>
      </trkpt>
      <trkpt lat="42.87574" lon="0.16854">
        <ele>2327</ele>
        <time>2010-01-01T05:45:04Z</time>
      </trkpt>
      <trkpt lat="42.87561" lon="0.16875">
        <ele>2333</ele>
        <time>2010-01-01T05:45:12Z</time>
      </trkpt>
      <trkpt lat="42.8755" lon="0.16929">
        <ele>2345</ele>
        <time>2010-01-01T05:45:28Z</time>
      </trkpt>
      <trkpt lat="42.87542" lon="0.16956">
        <ele>2351</ele>
        <time>2010-01-01T05:45:37Z</time>
      </trkpt>
      <trkpt lat="42.87526" lon="0.16985">
        <ele>2361</ele>
        <time>2010-01-01T05:45:48Z</time>
      </trkpt>
      <trkpt lat="42.87511" lon="0.17034">
        <ele>2373</ele>
        <time>2010-01-01T05:46:03Z</time>
      </trkpt>
      <trkpt lat="42.87487" lon="0.17103">
        <ele>2396</ele>
        <time>2010-01-01T05:46:25Z</time>
      </trkpt>
      <trkpt lat="42.87478" lon="0.17102">
        <ele>2399</ele>
        <time>2010-01-01T05:46:29Z</time>
      </trkpt>
      <trkpt lat="42.87477" lon="0.17121">
        <ele>2404</ele>
        <time>2010-01-01T05:46:35Z</time>
      </trkpt>
      <trkpt lat="42.87456" lon="0.17119">
        <ele>2414</ele>
        <time>2010-01-01T05:46:43Z</time>
      </trkpt>
      <trkpt lat="42.8746" lon="0.1713">
        <ele>2415</ele>
        <time>2010-01-01T05:46:47Z</time>
      </trkpt>
      <trkpt lat="42.87453" lon="0.17132">
        <ele>2419</ele>
        <time>2010-01-01T05:46:50Z</time>
      </trkpt>
      <trkpt lat="42.87457" lon="0.1714">
        <ele>2419</ele>
        <time>2010-01-01T05:46:53Z</time>
      </trkpt>
      <trkpt lat="42.87436" lon="0.17147">
        <ele>2433</ele>
        <time>2010-01-01T05:47:02Z</time>
      </trkpt>
      <trkpt lat="42.87442" lon="0.17165">
        <ele>2433</ele>
        <time>2010-01-01T05:47:07Z</time>
      </trkpt>
      <trkpt lat="42.87437" lon="0.17169">
        <ele>2437</ele>
        <time>2010-01-01T05:47:10Z</time>
      </trkpt>
      <trkpt lat="42.87439" lon="0.17176">
        <ele>2438</ele>
        <time>2010-01-01T05:47:12Z</time>
      </trkpt>
      <trkpt lat="42.87434" lon="0.17177">
        <ele>2441</ele>
        <time>2010-01-01T05:47:14Z</time>
      </trkpt>
      <trkpt lat="42.87434" lon="0.17192">
        <ele>2447</ele>
        <time>2010-01-01T05:47:18Z</time>
      </trkpt>
      <trkpt lat="42.87415" lon="0.17203">
        <ele>2457</ele>
        <time>2010-01-01T05:47:26Z</time>
      </trkpt>
      <trkpt lat="42.87384" lon="0.17212">
        <ele>2464</ele>
        <time>2010-01-01T05:47:39Z</time>
      </trkpt>
      <trkpt lat="42.87373" lon="0.1721">
        <ele>2463</ele>
        <time>2010-01-01T05:47:43Z</time>
      </trkpt>
      <trkpt lat="42.87358" lon="0.1721">
        <ele>2460</ele>
        <time>2010-01-01T05:47:49Z</time>
      </trkpt>
      <trkpt lat="42.87347" lon="0.17245">
        <ele>2448</ele>
        <time>2010-01-01T05:48:00Z</time>
      </trkpt>
      <trkpt lat="42.87353" lon="0.17286">
        <ele>2435</ele>
        <time>2010-01-01T05:48:12Z</time>
      </trkpt>
      <trkpt lat="42.87357" lon="0.17295">
        <ele>2434</ele>
        <time>2010-01-01T05:48:16Z</time>
      </trkpt>
      <trkpt lat="42.8737" lon="0.17305">
        <ele>2437</ele>
        <time>2010-01-01T05:48:22Z</time>
      </trkpt>
      <trkpt lat="42.87392" lon="0.17362">
        <ele>2428</ele>
        <time>2010-01-01T05:48:41Z</time>
      </trkpt>
      <trkpt lat="42.87395" lon="0.1739">
        <ele>2421</ele>
        <time>2010-01-01T05:48:49Z</time>
      </trkpt>
      <trkpt lat="42.87395" lon="0.17455">
        <ele>2408</ele>
        <time>2010-01-01T05:49:08Z</time>
      </trkpt>
      <trkpt lat="42.87402" lon="0.17495">
        <ele>2406</ele>
        <time>2010-01-01T05:49:20Z</time>
      </trkpt>
      <trkpt lat="42.87415" lon="0.17529">
        <ele>2406</ele>
        <time>2010-01-01T05:49:31Z</time>
      </trkpt>
      <trkpt lat="42.87402" lon="0.17576">
        <ele>2391</ele>
        <time>2010-01-01T05:49:46Z</time>
      </trkpt>
      <trkpt lat="42.87408" lon="0.17598">
        <ele>2387</ele>
        <time>2010-01-01T05:49:53Z</time>
      </trkpt>
      <trkpt lat="42.87402" lon="0.17646">
        <ele>2378</ele>
        <time>2010-01-01T05:50:07Z</time>
      </trkpt>
      <trkpt lat="42.87385" lon="0.17679">
        <ele>2370</ele>
        <time>2010-01-01T05:50:19Z</time>
      </trkpt>
      <trkpt lat="42.87357" lon="0.17732">
        <ele>2359</ele>
        <time>2010-01-01T05:50:38Z</time>
      </trkpt>
      <trkpt lat="42.87317" lon="0.17788">
        <ele>2346</ele>
        <time>2010-01-01T05:51:01Z</time>
      </trkpt>
      <trkpt lat="42.87262" lon="0.17873">
        <ele>2333</ele>
        <time>2010-01-01T05:51:35Z</time>
      </trkpt>
      <trkpt lat="42.87211" lon="0.17939">
        <ele>2328</ele>
        <time>2010-01-01T05:52:03Z</time>
      </trkpt>
      <trkpt lat="42.87226" lon="0.18063">
        <ele>2327</ele>
        <time>2010-01-01T05:52:40Z</time>
      </trkpt>
      <trkpt lat="42.8722" lon="0.18165">
        <ele>2320</ele>
        <time>2010-01-01T05:53:10Z</time>
      </trkpt>
      <trkpt lat="42.87237" lon="0.1818">
        <ele>2317</ele>
        <time>2010-01-01T05:53:18Z</time>
      </trkpt>
      <trkpt lat="42.8723" lon="0.1822">
        <ele>2307</ele>
        <time>2010-01-01T05:53:30Z</time>
      </trkpt>
      <trkpt lat="42.87205" lon="0.18255">
        <ele>2299</ele>
        <time>2010-01-01T05:53:44Z</time>
      </trkpt>
      <trkpt lat="42.87186" lon="0.18289">
        <ele>2293</ele>
        <time>2010-01-01T05:53:57Z</time>
      </trkpt>
      <trkpt lat="42.87189" lon="0.18316">
        <ele>2291</ele>
        <time>2010-01-01T05:54:05Z</time>
      </trkpt>
      <trkpt lat="42.87179" lon="0.18338">
        <ele>2289</ele>
        <time>2010-01-01T05:54:12Z</time>
      </trkpt>
      <trkpt lat="42.87181" lon="0.18352">
        <ele>2289</ele>
        <time>2010-01-01T05:54:17Z</time>
      </trkpt>
      <trkpt lat="42.87177" lon="0.18387">
        <ele>2288</ele>
        <time>2010-01-01T05:54:27Z</time>
      </trkpt>
      <trkpt lat="42.87179" lon="0.18407">
        <ele>2288</ele>
        <time>2010-01-01T05:54:33Z</time>
      </trkpt>
      <trkpt lat="42.8717" lon="0.18432">
        <ele>2288</ele>
        <time>2010-01-01T05:54:41Z</time>
      </trkpt>
      <trkpt lat="42.87159" lon="0.18494">
        <ele>2289</ele>
        <time>2010-01-01T05:55:00Z</time>
      </trkpt>
      <trkpt lat="42.87146" lon="0.1851">
        <ele>2288</ele>
        <time>2010-01-01T05:55:07Z</time>
      </trkpt>
      <trkpt lat="42.87151" lon="0.18543">
        <ele>2290</ele>
        <time>2010-01-01T05:55:17Z</time>
      </trkpt>
      <trkpt lat="42.87136" lon="0.18597">
        <ele>2290</ele>
        <time>2010-01-01T05:55:34Z</time>
      </trkpt>
      <trkpt lat="42.87114" lon="0.18607">
        <ele>2287</ele>
        <time>2010-01-01T05:55:43Z</time>
      </trkpt>
      <trkpt lat="42.87095" lon="0.18616">
        <ele>2285</ele>
        <time>2010-01-01T05:55:51Z</time>
      </trkpt>
      <trkpt lat="42.87036" lon="0.18568">
        <ele>2276</ele>
        <time>2010-01-01T05:56:18Z</time>
      </trkpt>
      <trkpt lat="42.86942" lon="0.18596">
        <ele>2259</ele>
        <time>2010-01-01T05:56:57Z</time>
      </trkpt>
      <trkpt lat="42.86889" lon="0.18645">
        <ele>2239</ele>
        <time>2010-01-01T05:57:23Z</time>
      </trkpt>
      <trkpt lat="42.868" lon="0.18659">
        <ele>2228</ele>
        <time>2010-01-01T05:57:58Z</time>
      </trkpt>
      <trkpt lat="42.8667" lon="0.18729">
        <ele>2209</ele>
        <time>2010-01-01T05:58:54Z</time>
      </trkpt>
      <trkpt lat="42.86608" lon="0.18723">
        <ele>2206</ele>
        <time>2010-01-01T05:59:19Z</time>
      </trkpt>
      <trkpt lat="42.86541" lon="0.18726">
        <ele>2191</ele>
        <time>2010-01-01T05:59:46Z</time>
      </trkpt>
      <trkpt lat="42.86518" lon="0.18699">
        <ele>2183</ele>
        <time>2010-01-01T05:59:58Z</time>
      </trkpt>
      <trkpt lat="42.86484" lon="0.18689">
        <ele>2172</ele>
        <time>2010-01-01T06:00:12Z</time>
      </trkpt>
      <trkpt lat="42.86453" lon="0.18702">
        <ele>2167</ele>
        <time>2010-01-01T06:00:25Z</time>
      </trkpt>
      <trkpt lat="42.86426" lon="0.18695">
        <ele>2159</ele>
        <time>2010-01-01T06:00:36Z</time>
      </trkpt>
      <trkpt lat="42.86391" lon="0.18704">
        <ele>2153</ele>
        <time>2010-01-01T06:00:51Z</time>
      </trkpt>
      <trkpt lat="42.86381" lon="0.18695">
        <ele>2149</ele>
        <time>2010-01-01T06:00:55Z</time>
      </trkpt>
      <trkpt lat="42.86332" lon="0.18715">
        <ele>2142</ele>
        <time>2010-01-01T06:01:16Z</time>
      </trkpt>
      <trkpt lat="42.8632" lon="0.18734">
        <ele>2143</ele>
        <time>2010-01-01T06:01:23Z</time>
      </trkpt>
      <trkpt lat="42.86251" lon="0.18733">
        <ele>2132</ele>
        <time>2010-01-01T06:01:51Z</time>
      </trkpt>
      <trkpt lat="42.86206" lon="0.18726">
        <ele>2123</ele>
        <time>2010-01-01T06:02:09Z</time>
      </trkpt>
      <trkpt lat="42.86148" lon="0.18732">
        <ele>2111</ele>
        <time>2010-01-01T06:02:32Z</time>
      </trkpt>
      <trkpt lat="42.86099" lon="0.18721">
        <ele>2099</ele>
        <time>2010-01-01T06:02:52Z</time>
      </trkpt>
      <trkpt lat="42.86084" lon="0.18728">
        <ele>2096</ele>
        <time>2010-01-01T06:02:58Z</time>
      </trkpt>
      <trkpt lat="42.86013" lon="0.18773">
        <ele>2081</ele>
        <time>2010-01-01T06:03:30Z</time>
      </trkpt>
      <trkpt lat="42.85958" lon="0.18839">
        <ele>2065</ele>
        <time>2010-01-01T06:03:59Z</time>
      </trkpt>
      <trkpt lat="42.85904" lon="0.18921">
        <ele>2041</ele>
        <time>2010-01-01T06:04:31Z</time>
      </trkpt>
      <trkpt lat="42.85858" lon="0.1902">
        <ele>2030</ele>
        <time>2010-01-01T06:05:06Z</time>
      </trkpt>
      <trkpt lat="42.85815" lon="0.19122">
        <ele>2023</ele>
        <time>2010-01-01T06:05:40Z</time>
      </trkpt>
      <trkpt lat="42.85747" lon="0.19168">
        <ele>2012</ele>
        <time>2010-01-01T06:06:11Z</time>
      </trkpt>
      <trkpt lat="42.85685" lon="0.19219">
        <ele>2007</ele>
        <time>2010-01-01T06:06:40Z</time>
      </trkpt>
      <trkpt lat="42.85624" lon="0.19297">
        <ele>2002</ele>
        <time>2010-01-01T06:07:13Z</time>
      </trkpt>
      <trkpt lat="42.85566" lon="0.19327">
        <ele>1996</ele>
        <time>2010-01-01T06:07:38Z</time>
      </trkpt>
      <trkpt lat="42.85505" lon="0.19332">
        <ele>1990</ele>
        <time>2010-01-01T06:08:02Z</time>
      </trkpt>
      <trkpt lat="42.85446" lon="0.19411">
        <ele>1987</ele>
        <time>2010-01-01T06:08:35Z</time>
      </trkpt>
      <trkpt lat="42.85375" lon="0.19444">
        <ele>1982</ele>
        <time>2010-01-01T06:09:06Z</time>
      </trkpt>
      <trkpt lat="42.85303" lon="0.19456">
        <ele>1977</ele>
        <time>2010-01-01T06:09:34Z</time>
      </trkpt>
      <trkpt lat="42.8525" lon="0.19491">
        <ele>1977</ele>
        <time>2010-01-01T06:09:58Z</time>
      </trkpt>
      <trkpt lat="42.85189" lon="0.19463">
        <ele>1966</ele>
        <time>2010-01-01T06:10:24Z</time>
      </trkpt>
      <trkpt lat="42.85137" lon="0.19447">
        <ele>1959</ele>
        <time>2010-01-01T06:10:45Z</time>
      </trkpt>
      <trkpt lat="42.85074" lon="0.19449">
        <ele>1956</ele>
        <time>2010-01-01T06:11:11Z</time>
      </trkpt>
      <trkpt lat="42.85036" lon="0.19447">
        <ele>1953</ele>
        <time>2010-01-01T06:11:26Z</time>
      </trkpt>
      <trkpt lat="42.84998" lon="0.19455">
        <ele>1951</ele>
        <time>2010-01-01T06:11:41Z</time>
      </trkpt>
      <trkpt lat="42.84942" lon="0.19451">
        <ele>1946</ele>
        <time>2010-01-01T06:12:04Z</time>
      </trkpt>
      <trkpt lat="42.8483" lon="0.19489">
        <ele>1938</ele>
        <time>2010-01-01T06:12:50Z</time>
      </trkpt>
      <trkpt lat="42.84746" lon="0.19464">
        <ele>1925</ele>
        <time>2010-01-01T06:13:24Z</time>
      </trkpt>
      <trkpt lat="42.84684" lon="0.19479">
        <ele>1915</ele>
        <time>2010-01-01T06:13:49Z</time>
      </trkpt>
      <trkpt lat="42.84637" lon="0.19508">
        <ele>1909</ele>
        <time>2010-01-01T06:14:10Z</time>
      </trkpt>
      <trkpt lat="42.84615" lon="0.19548">
        <ele>1907</ele>
        <time>2010-01-01T06:14:25Z</time>
      </trkpt>
      <trkpt lat="42.84517" lon="0.19552">
        <ele>1891</ele>
        <time>2010-01-01T06:15:04Z</time>
      </trkpt>
      <trkpt lat="42.84461" lon="0.19569">
        <ele>1882</ele>
        <time>2010-01-01T06:15:27Z</time>
      </trkpt>
      <trkpt lat="42.84412" lon="0.19593">
        <ele>1873</ele>
        <time>2010-01-01T06:15:48Z</time>
      </trkpt>
      <trkpt lat="42.8433" lon="0.19666">
        <ele>1857</ele>
        <time>2010-01-01T06:16:27Z</time>
      </trkpt>
      <trkpt lat="42.84265" lon="0.19751">
        <ele>1854</ele>
        <time>2010-01-01T06:17:03Z</time>
      </trkpt>
      <trkpt lat="42.84232" lon="0.19779">
        <ele>1854</ele>
        <time>2010-01-01T06:17:19Z</time>
      </trkpt>
      <trkpt lat="42.84199" lon="0.19817">
        <ele>1854</ele>
        <time>2010-01-01T06:17:36Z</time>
      </trkpt>
      <trkpt lat="42.84191" lon="0.19909">
        <ele>1867</ele>
        <time>2010-01-01T06:18:03Z</time>
      </trkpt>
      <trkpt lat="42.84137" lon="0.20012">
        <ele>1877</ele>
        <time>2010-01-01T06:18:40Z</time>
      </trkpt>
      <trkpt lat="42.84009" lon="0.2009">
        <ele>1891</ele>
        <time>2010-01-01T06:19:37Z</time>
      </trkpt>
      <trkpt lat="42.83905" lon="0.20179">
        <ele>1906</ele>
        <time>2010-01-01T06:20:26Z</time>
      </trkpt>
      <trkpt lat="42.83863" lon="0.20226">
        <ele>1919</ele>
        <time>2010-01-01T06:20:48Z</time>
      </trkpt>
      <trkpt lat="42.8381" lon="0.20268">
        <ele>1929</ele>
        <time>2010-01-01T06:21:12Z</time>
      </trkpt>
      <trkpt lat="42.83686" lon="0.20376">
        <ele>1953</ele>
        <time>2010-01-01T06:22:11Z</time>
      </trkpt>
      <trkpt lat="42.83596" lon="0.20471">
        <ele>1962</ele>
        <time>2010-01-01T06:22:57Z</time>
      </trkpt>
      <trkpt lat="42.83569" lon="0.20576">
        <ele>1985</ele>
        <time>2010-01-01T06:23:29Z</time>
      </trkpt>
      <trkpt lat="42.83503" lon="0.20554">
        <ele>1969</ele>
        <time>2010-01-01T06:23:56Z</time>
      </trkpt>
      <trkpt lat="42.83473" lon="0.2061">
        <ele>1981</ele>
        <time>2010-01-01T06:24:17Z</time>
      </trkpt>
      <trkpt lat="42.83387" lon="0.2068">
        <ele>1984</ele>
        <time>2010-01-01T06:24:57Z</time>
      </trkpt>
      <trkpt lat="42.83354" lon="0.20703">
        <ele>1986</ele>
        <time>2010-01-01T06:25:12Z</time>
      </trkpt>
      <trkpt lat="42.83309" lon="0.20699">
        <ele>1980</ele>
        <time>2010-01-01T06:25:30Z</time>
      </trkpt>
      <trkpt lat="42.83242" lon="0.20726">
        <ele>1992</ele>
        <time>2010-01-01T06:25:58Z</time>
      </trkpt>
      <trkpt lat="42.83178" lon="0.20777">
        <ele>2001</ele>
        <time>2010-01-01T06:26:28Z</time>
      </trkpt>
      <trkpt lat="42.83087" lon="0.20847">
        <ele>2005</ele>
        <time>2010-01-01T06:27:09Z</time>
      </trkpt>
      <trkpt lat="42.82963" lon="0.20959">
        <ele>2008</ele>
        <time>2010-01-01T06:28:09Z</time>
      </trkpt>
      <trkpt lat="42.82874" lon="0.21099">
        <ele>2020</ele>
        <time>2010-01-01T06:29:03Z</time>
      </trkpt>
      <trkpt lat="42.82837" lon="0.21162">
        <ele>2023</ele>
        <time>2010-01-01T06:29:27Z</time>
      </trkpt>
      <trkpt lat="42.82798" lon="0.21325">
        <ele>2022</ele>
        <time>2010-01-01T06:30:17Z</time>
      </trkpt>
      <trkpt lat="42.82793" lon="0.21435">
        <ele>2026</ele>
        <time>2010-01-01T06:30:50Z</time>
      </trkpt>
      <trkpt lat="42.82769" lon="0.21752">
        <ele>2026</ele>
        <time>2010-01-01T06:32:23Z</time>
      </trkpt>
      <trkpt lat="42.82755" lon="0.21813">
        <ele>2024</ele>
        <time>2010-01-01T06:32:42Z</time>
      </trkpt>
      <trkpt lat="42.82791" lon="0.21961">
        <ele>2032</ele>
        <time>2010-01-01T06:33:28Z</time>
      </trkpt>
      <trkpt lat="42.82833" lon="0.22105">
        <ele>2038</ele>
        <time>2010-01-01T06:34:13Z</time>
      </trkpt>
      <trkpt lat="42.82836" lon="0.2223">
        <ele>2042</ele>
        <time>2010-01-01T06:34:50Z</time>
      </trkpt>
      <trkpt lat="42.82837" lon="0.22301">
        <ele>2050</ele>
        <time>2010-01-01T06:35:11Z</time>
      </trkpt>
      <trkpt lat="42.82842" lon="0.22434">
        <ele>2065</ele>
        <time>2010-01-01T06:35:50Z</time>
      </trkpt>
      <trkpt lat="42.82844" lon="0.22538">
        <ele>2078</ele>
        <time>2010-01-01T06:36:21Z</time>
      </trkpt>
      <trkpt lat="42.82877" lon="0.22686">
        <ele>2100</ele>
        <time>2010-01-01T06:37:06Z</time>
      </trkpt>
      <trkpt lat="42.82898" lon="0.2279">
        <ele>2112</ele>
        <time>2010-01-01T06:37:38Z</time>
      </trkpt>
      <trkpt lat="42.82937" lon="0.22904">
        <ele>2128</ele>
        <time>2010-01-01T06:38:14Z</time>
      </trkpt>
      <trkpt lat="42.82996" lon="0.23054">
        <ele>2149</ele>
        <time>2010-01-01T06:39:04Z</time>
      </trkpt>
      <trkpt lat="42.83054" lon="0.23153">
        <ele>2164</ele>
        <time>2010-01-01T06:39:42Z</time>
      </trkpt>
      <trkpt lat="42.83102" lon="0.23306">
        <ele>2186</ele>
        <time>2010-01-01T06:40:31Z</time>
      </trkpt>
      <trkpt lat="42.83185" lon="0.23429">
        <ele>2203</ele>
        <time>2010-01-01T06:41:20Z</time>
      </trkpt>
      <trkpt lat="42.83267" lon="0.23572">
        <ele>2218</ele>
        <time>2010-01-01T06:42:13Z</time>
      </trkpt>
      <trkpt lat="42.83329" lon="0.23664">
        <ele>2213</ele>
        <time>2010-01-01T06:42:50Z</time>
      </trkpt>
      <trkpt lat="42.83426" lon="0.23688">
        <ele>2197</ele>
        <time>2010-01-01T06:43:29Z</time>
      </trkpt>
      <trkpt lat="42.83485" lon="0.23734">
        <ele>2183</ele>
        <time>2010-01-01T06:43:56Z</time>
      </trkpt>
      <trkpt lat="42.83393" lon="0.23893">
        <ele>2130</ele>
        <time>2010-01-01T06:44:56Z</time>
      </trkpt>
      <trkpt lat="42.83268" lon="0.24015">
        <ele>2104</ele>
        <time>2010-01-01T06:45:57Z</time>
      </trkpt>
      <trkpt lat="42.83343" lon="0.24077">
        <ele>2066</ele>
        <time>2010-01-01T06:46:32Z</time>
      </trkpt>
      <trkpt lat="42.83374" lon="0.24164">
        <ele>2043</ele>
        <time>2010-01-01T06:47:01Z</time>
      </trkpt>
      <trkpt lat="42.83313" lon="0.24388">
        <ele>1993</ele>
        <time>2010-01-01T06:48:11Z</time>
      </trkpt>
      <trkpt lat="42.83282" lon="0.24484">
        <ele>1973</ele>
        <time>2010-01-01T06:48:42Z</time>
      </trkpt>
      <trkpt lat="42.83227" lon="0.24642">
        <ele>1939</ele>
        <time>2010-01-01T06:49:33Z</time>
      </trkpt>
      <trkpt lat="42.83188" lon="0.24683">
        <ele>1932</ele>
        <time>2010-01-01T06:49:53Z</time>
      </trkpt>
      <trkpt lat="42.83141" lon="0.24709">
        <ele>1931</ele>
        <time>2010-01-01T06:50:13Z</time>
      </trkpt>
      <trkpt lat="42.83062" lon="0.247">
        <ele>1929</ele>
        <time>2010-01-01T06:50:45Z</time>
      </trkpt>
      <trkpt lat="42.83015" lon="0.24689">
        <ele>1931</ele>
        <time>2010-01-01T06:51:04Z</time>
      </trkpt>
      <trkpt lat="42.82977" lon="0.2473">
        <ele>1913</ele>
        <time>2010-01-01T06:51:23Z</time>
      </trkpt>
      <trkpt lat="42.82947" lon="0.24792">
        <ele>1900</ele>
        <time>2010-01-01T06:51:45Z</time>
      </trkpt>
      <trkpt lat="42.82917" lon="0.24867">
        <ele>1885</ele>
        <time>2010-01-01T06:52:10Z</time>
      </trkpt>
      <trkpt lat="42.82871" lon="0.24908">
        <ele>1875</ele>
        <time>2010-01-01T06:52:32Z</time>
      </trkpt>
      <trkpt lat="42.82795" lon="0.24926">
        <ele>1863</ele>
        <time>2010-01-01T06:53:03Z</time>
      </trkpt>
      <trkpt lat="42.82582" lon="0.24848">
        <ele>1855</ele>
        <time>2010-01-01T06:54:31Z</time>
      </trkpt>
      <trkpt lat="42.82551" lon="0.2488">
        <ele>1847</ele>
        <time>2010-01-01T06:54:47Z</time>
      </trkpt>
      <trkpt lat="42.82523" lon="0.25061">
        <ele>1824</ele>
        <time>2010-01-01T06:55:41Z</time>
      </trkpt>
      <trkpt lat="42.82498" lon="0.25172">
        <ele>1817</ele>
        <time>2010-01-01T06:56:15Z</time>
      </trkpt>
      <trkpt lat="42.82462" lon="0.25258">
        <ele>1802</ele>
        <time>2010-01-01T06:56:44Z</time>
      </trkpt>
      <trkpt lat="42.82381" lon="0.25344">
        <ele>1792</ele>
        <time>2010-01-01T06:57:25Z</time>
      </trkpt>
      <trkpt lat="42.82312" lon="0.2552">
        <ele>1771</ele>
        <time>2010-01-01T06:58:24Z</time>
      </trkpt>
      <trkpt lat="42.82334" lon="0.25589">
        <ele>1750</ele>
        <time>2010-01-01T06:58:46Z</time>
      </trkpt>
      <trkpt lat="42.82376" lon="0.25695">
        <ele>1715</ele>
        <time>2010-01-01T06:59:21Z</time>
      </trkpt>
      <trkpt lat="42.82403" lon="0.25822">
        <ele>1689</ele>
        <time>2010-01-01T07:00:00Z</time>
      </trkpt>
      <trkpt lat="42.82373" lon="0.25878">
        <ele>1698</ele>
        <time>2010-01-01T07:00:21Z</time>
      </trkpt>
      <trkpt lat="42.82391" lon="0.26005">
        <ele>1665</ele>
        <time>2010-01-01T07:00:59Z</time>
      </trkpt>
      <trkpt lat="42.82382" lon="0.26103">
        <ele>1660</ele>
        <time>2010-01-01T07:01:28Z</time>
      </trkpt>
      <trkpt lat="42.82383" lon="0.26216">
        <ele>1650</ele>
        <time>2010-01-01T07:02:01Z</time>
      </trkpt>
      <trkpt lat="42.82418" lon="0.2609">
        <ele>1637</ele>
        <time>2010-01-01T07:02:41Z</time>
      </trkpt>
      <trkpt lat="42.82453" lon="0.25942">
        <ele>1629</ele>
        <time>2010-01-01T07:03:26Z</time>
      </trkpt>
      <trkpt lat="42.82525" lon="0.2579">
        <ele>1604</ele>
        <time>2010-01-01T07:04:19Z</time>
      </trkpt>
      <trkpt lat="42.82502" lon="0.25913">
        <ele>1602</ele>
        <time>2010-01-01T07:04:56Z</time>
      </trkpt>
      <trkpt lat="42.825" lon="0.26053">
        <ele>1586</ele>
        <time>2010-01-01T07:05:38Z</time>
      </trkpt>
      <trkpt lat="42.82532" lon="0.26042">
        <ele>1573</ele>
        <time>2010-01-01T07:05:51Z</time>
      </trkpt>
      <trkpt lat="42.82561" lon="0.26057">
        <ele>1570</ele>
        <time>2010-01-01T07:06:03Z</time>
      </trkpt>
      <trkpt lat="42.82573" lon="0.26219">
        <ele>1547</ele>
        <time>2010-01-01T07:06:51Z</time>
      </trkpt>
      <trkpt lat="42.82577" lon="0.2646">
        <ele>1534</ele>
        <time>2010-01-01T07:08:02Z</time>
      </trkpt>
      <trkpt lat="42.82589" lon="0.26593">
        <ele>1528</ele>
        <time>2010-01-01T07:08:41Z</time>
      </trkpt>
      <trkpt lat="42.82579" lon="0.26646">
        <ele>1520</ele>
        <time>2010-01-01T07:08:57Z</time>
      </trkpt>
      <trkpt lat="42.82581" lon="0.2674">
        <ele>1508</ele>
        <time>2010-01-01T07:09:25Z</time>
      </trkpt>
      <trkpt lat="42.826" lon="0.26804">
        <ele>1505</ele>
        <time>2010-01-01T07:09:45Z</time>
      </trkpt>
      <trkpt lat="42.8262" lon="0.26922">
        <ele>1498</ele>
        <time>2010-01-01T07:10:21Z</time>
      </trkpt>
      <trkpt lat="42.82617" lon="0.26977">
        <ele>1492</ele>
        <time>2010-01-01T07:10:37Z</time>
      </trkpt>
      <trkpt lat="42.82582" lon="0.26938">
        <ele>1486</ele>
        <time>2010-01-01T07:10:55Z</time>
      </trkpt>
      <trkpt lat="42.82567" lon="0.26957">
        <ele>1489</ele>
        <time>2010-01-01T07:11:03Z</time>
      </trkpt>
      <trkpt lat="42.82567" lon="0.27092">
        <ele>1480</ele>
        <time>2010-01-01T07:11:42Z</time>
      </trkpt>
      <trkpt lat="42.82508" lon="0.27182">
        <ele>1492</ele>
        <time>2010-01-01T07:12:18Z</time>
      </trkpt>
      <trkpt lat="42.82494" lon="0.27506">
        <ele>1481</ele>
        <time>2010-01-01T07:13:53Z</time>
      </trkpt>
      <trkpt lat="42.82494" lon="0.27625">
        <ele>1474</ele>
        <time>2010-01-01T07:14:28Z</time>
      </trkpt>
      <trkpt lat="42.82435" lon="0.28054">
        <ele>1474</ele>
        <time>2010-01-01T07:16:36Z</time>
      </trkpt>
      <trkpt lat="42.82438" lon="0.28186">
        <ele>1460</ele>
        <time>2010-01-01T07:17:15Z</time>
      </trkpt>
      <trkpt lat="42.82403" lon="0.28248">
        <ele>1476</ele>
        <time>2010-01-01T07:17:38Z</time>
      </trkpt>
      <trkpt lat="42.82397" lon="0.28395">
        <ele>1461</ele>
        <time>2010-01-01T07:18:21Z</time>
      </trkpt>
      <trkpt lat="42.8235" lon="0.28518">
        <ele>1461</ele>
        <time>2010-01-01T07:19:02Z</time>
      </trkpt>
      <trkpt lat="42.82333" lon="0.28586">
        <ele>1450</ele>
        <time>2010-01-01T07:19:23Z</time>
      </trkpt>
      <trkpt lat="42.82398" lon="0.28675">
        <ele>1413</ele>
        <time>2010-01-01T07:20:00Z</time>
      </trkpt>
      <trkpt lat="42.82434" lon="0.28918">
        <ele>1370</ele>
        <time>2010-01-01T07:21:12Z</time>
      </trkpt>
      <trkpt lat="42.82526" lon="0.29424">
        <ele>1311</ele>
        <time>2010-01-01T07:23:45Z</time>
      </trkpt>
      <trkpt lat="42.82504" lon="0.29463">
        <ele>1306</ele>
        <time>2010-01-01T07:24:00Z</time>
      </trkpt>
      <trkpt lat="42.82482" lon="0.2953">
        <ele>1291</ele>
        <time>2010-01-01T07:24:22Z</time>
      </trkpt>
      <trkpt lat="42.82454" lon="0.2952">
        <ele>1288</ele>
        <time>2010-01-01T07:24:33Z</time>
      </trkpt>
      <trkpt lat="42.82435" lon="0.29528">
        <ele>1289</ele>
        <time>2010-01-01T07:24:41Z</time>
      </trkpt>
      <trkpt lat="42.82449" lon="0.29705">
        <ele>1275</ele>
        <time>2010-01-01T07:25:33Z</time>
      </trkpt>
      <trkpt lat="42.82447" lon="0.29833">
        <ele>1255</ele>
        <time>2010-01-01T07:26:11Z</time>
      </trkpt>
      <trkpt lat="42.82424" lon="0.29932">
        <ele>1240</ele>
        <time>2010-01-01T07:26:41Z</time>
      </trkpt>
      <trkpt lat="42.82379" lon="0.30019">
        <ele>1238</ele>
        <time>2010-01-01T07:27:13Z</time>
      </trkpt>
      <trkpt lat="42.82381" lon="0.30134">
        <ele>1225</ele>
        <time>2010-01-01T07:27:47Z</time>
      </trkpt>
      <trkpt lat="42.82403" lon="0.30247">
        <ele>1209</ele>
        <time>2010-01-01T07:28:21Z</time>
      </trkpt>
      <trkpt lat="42.82404" lon="0.3041">
        <ele>1189</ele>
        <time>2010-01-01T07:29:09Z</time>
      </trkpt>
      <trkpt lat="42.82566" lon="0.30587">
        <ele>1152</ele>
        <time>2010-01-01T07:30:32Z</time>
      </trkpt>
      <trkpt lat="42.82518" lon="0.30608">
        <ele>1145</ele>
        <time>2010-01-01T07:30:52Z</time>
      </trkpt>
      <trkpt lat="42.82569" lon="0.30627">
        <ele>1138</ele>
        <time>2010-01-01T07:31:14Z</time>
      </trkpt>
      <trkpt lat="42.82642" lon="0.30558">
        <ele>1139</ele>
        <time>2010-01-01T07:31:49Z</time>
      </trkpt>
      <trkpt lat="42.82566" lon="0.30705">
        <ele>1111</ele>
        <time>2010-01-01T07:32:42Z</time>
      </trkpt>
      <trkpt lat="42.82643" lon="0.30654">
        <ele>1108</ele>
        <time>2010-01-01T07:33:17Z</time>
      </trkpt>
      <trkpt lat="42.82558" lon="0.30776">
        <ele>1084</ele>
        <time>2010-01-01T07:34:06Z</time>
      </trkpt>
      <trkpt lat="42.8271" lon="0.30672">
        <ele>1073</ele>
        <time>2010-01-01T07:35:15Z</time>
      </trkpt>
      <trkpt lat="42.8281" lon="0.30514">
        <ele>1045</ele>
        <time>2010-01-01T07:36:16Z</time>
      </trkpt>
      <trkpt lat="42.82813" lon="0.30659">
        <ele>1018</ele>
        <time>2010-01-01T07:36:59Z</time>
      </trkpt>
      <trkpt lat="42.82803" lon="0.30837">
        <ele>992</ele>
        <time>2010-01-01T07:37:51Z</time>
      </trkpt>
      <trkpt lat="42.82772" lon="0.30978">
        <ele>970</ele>
        <time>2010-01-01T07:38:34Z</time>
      </trkpt>
      <trkpt lat="42.82743" lon="0.31092">
        <ele>952</ele>
        <time>2010-01-01T07:39:10Z</time>
      </trkpt>
      <trkpt lat="42.82742" lon="0.31187">
        <ele>931</ele>
        <time>2010-01-01T07:39:37Z</time>
      </trkpt>
      <trkpt lat="42.82622" lon="0.31255">
        <ele>921</ele>
        <time>2010-01-01T07:40:29Z</time>
      </trkpt>
      <trkpt lat="42.82456" lon="0.3127">
        <ele>899</ele>
        <time>2010-01-01T07:41:36Z</time>
      </trkpt>
      <trkpt lat="42.82614" lon="0.31375">
        <ele>881</ele>
        <time>2010-01-01T07:42:47Z</time>
      </trkpt>
      <trkpt lat="42.82424" lon="0.31401">
        <ele>855</ele>
        <time>2010-01-01T07:44:03Z</time>
      </trkpt>
      <trkpt lat="42.8236" lon="0.31411">
        <ele>850</ele>
        <time>2010-01-01T07:44:29Z</time>
      </trkpt>
      <trkpt lat="42.82341" lon="0.315">
        <ele>835</ele>
        <time>2010-01-01T07:44:56Z</time>
      </trkpt>
      <trkpt lat="42.82356" lon="0.31617">
        <ele>824</ele>
        <time>2010-01-01T07:45:31Z</time>
      </trkpt>
      <trkpt lat="42.82405" lon="0.31653">
        <ele>823</ele>
        <time>2010-01-01T07:45:54Z</time>
      </trkpt>
      <trkpt lat="42.82477" lon="0.31712">
        <ele>821</ele>
        <time>2010-01-01T07:46:27Z</time>
      </trkpt>
      <trkpt lat="42.82571" lon="0.31785">
        <ele>821</ele>
        <time>2010-01-01T07:47:11Z</time>
      </trkpt>
      <trkpt lat="42.82562" lon="0.31862">
        <ele>817</ele>
        <time>2010-01-01T07:47:34Z</time>
      </trkpt>
      <trkpt lat="42.82639" lon="0.31999">
        <ele>810</ele>
        <time>2010-01-01T07:48:24Z</time>
      </trkpt>
      <trkpt lat="42.82652" lon="0.3213">
        <ele>805</ele>
        <time>2010-01-01T07:49:03Z</time>
      </trkpt>
      <trkpt lat="42.82745" lon="0.32304">
        <ele>798</ele>
        <time>2010-01-01T07:50:06Z</time>
      </trkpt>
      <trkpt lat="42.82849" lon="0.32541">
        <ele>794</ele>
        <time>2010-01-01T07:51:27Z</time>
      </trkpt>
      <trkpt lat="42.82884" lon="0.32625">
        <ele>793</ele>
        <time>2010-01-01T07:51:56Z</time>
      </trkpt>
      <trkpt lat="42.82987" lon="0.3271">
        <ele>791</ele>
        <time>2010-01-01T07:52:44Z</time>
      </trkpt>
    </trkseg>
  </trk>
</gpx>